<?xml version="1.0" encoding="UTF-8" standalone="no" ?>
<gpx xmlns="http://www.topografix.com/GPX/1/1" xmlns:xsi="http://www.w3.org/2001/XMLSchema-instance" xsi:schemaLocation="http://www.topografix.com/GPX/1/1 http://www.topografix.com/GPX/1/1/gpx.xsd" version="1.1" creator="VisuGPX - https://www.visugpx.com">
  <metadata>
    <name>Tours Lamballe &amp;amp; La Poterie</name>
    <desc><![CDATA[2 boucles sur une journée, avec retour pour le déjeuner aux voitures.
Ce qui permet de les faires aussi séparément.]]></desc>
  </metadata>
  <wpt lat="48.47172" lon="-2.50338">
    <ele>49</ele>
    <name><![CDATA[DEPART]]></name>
    <type><![CDATA[pk]]></type>
  </wpt>
  <wpt lat="48.47155" lon="-2.5034">
    <ele>48.8</ele>
    <name><![CDATA[PICNIC]]></name>
    <type><![CDATA[picnic]]></type>
  </wpt>
  <wpt lat="48.48157" lon="-2.46461">
    <ele>87.9</ele>
    <name><![CDATA[LANDE DES POTIERS]]></name>
    <type><![CDATA[patrimoine_geo]]></type>
  </wpt>
  <wpt lat="48.4717" lon="-2.50355">
    <ele>48.8</ele>
    <name><![CDATA[TOUR APRES-MIDI]]></name>
    <desc><![CDATA[Visite Lamballe]]></desc>
  </wpt>
  <wpt lat="48.47135" lon="-2.50364">
    <ele>48.4</ele>
    <name><![CDATA[TOUR MATIN]]></name>
  </wpt>
  <trk>
    <name><![CDATA[Tours Lamballe &amp; La Poterie_1]]></name>
    <extensions>
      <line xmlns="http://www.topografix.com/GPX/gpx_style/0/2">
        <color>0000FF</color>
        <width>4</width>
      </line>
    </extensions>
    <trkseg>
      <trkpt lat="48.47169" lon="-2.50351">
        <ele>50.016662597656</ele>
        <time>2021-05-10T07:30:34Z</time>
      </trkpt>
      <trkpt lat="48.47177" lon="-2.50343">
        <ele>47.746948242188</ele>
        <time>2021-05-10T07:30:42Z</time>
      </trkpt>
      <trkpt lat="48.47185" lon="-2.50339">
        <ele>50.149536132812</ele>
        <time>2021-05-10T07:30:49Z</time>
      </trkpt>
      <trkpt lat="48.47193" lon="-2.50333">
        <ele>48.60986328125</ele>
        <time>2021-05-10T07:30:56Z</time>
      </trkpt>
      <trkpt lat="48.472" lon="-2.50326">
        <ele>48.451354980469</ele>
        <time>2021-05-10T07:31:03Z</time>
      </trkpt>
      <trkpt lat="48.47206" lon="-2.50319">
        <ele>48.241943359375</ele>
        <time>2021-05-10T07:31:10Z</time>
      </trkpt>
      <trkpt lat="48.47213" lon="-2.50314">
        <ele>47.754272460938</ele>
        <time>2021-05-10T07:31:15Z</time>
      </trkpt>
      <trkpt lat="48.47219" lon="-2.50306">
        <ele>50.084716796875</ele>
        <time>2021-05-10T07:31:22Z</time>
      </trkpt>
      <trkpt lat="48.47225" lon="-2.50299">
        <ele>51.730529785156</ele>
        <time>2021-05-10T07:31:27Z</time>
      </trkpt>
      <trkpt lat="48.47232" lon="-2.50293">
        <ele>51.382507324219</ele>
        <time>2021-05-10T07:31:33Z</time>
      </trkpt>
      <trkpt lat="48.47242" lon="-2.50293">
        <ele>50.2</ele>
        <time>2021-05-10T07:31:41Z</time>
      </trkpt>
      <trkpt lat="48.47247" lon="-2.50304">
        <ele>52.094604492188</ele>
        <time>2021-05-10T07:31:59Z</time>
      </trkpt>
      <trkpt lat="48.47253" lon="-2.50311">
        <ele>49.332641601562</ele>
        <time>2021-05-10T07:32:06Z</time>
      </trkpt>
      <trkpt lat="48.47252" lon="-2.50324">
        <ele>49.183349609375</ele>
        <time>2021-05-10T07:32:10Z</time>
      </trkpt>
      <trkpt lat="48.47251" lon="-2.50337">
        <ele>50</ele>
        <time>2021-05-10T07:32:16Z</time>
      </trkpt>
      <trkpt lat="48.47251" lon="-2.50349">
        <ele>50.1</ele>
        <time>2021-05-10T07:32:22Z</time>
      </trkpt>
      <trkpt lat="48.47252" lon="-2.50362">
        <ele>50.1</ele>
        <time>2021-05-10T07:32:30Z</time>
      </trkpt>
      <trkpt lat="48.47256" lon="-2.50379">
        <ele>50.4</ele>
        <time>2021-05-10T07:32:37Z</time>
      </trkpt>
      <trkpt lat="48.47258" lon="-2.50389">
        <ele>50.6</ele>
        <time>2021-05-10T07:32:42Z</time>
      </trkpt>
      <trkpt lat="48.47261" lon="-2.50402">
        <ele>50.8</ele>
        <time>2021-05-10T07:32:49Z</time>
      </trkpt>
      <trkpt lat="48.47263" lon="-2.50413">
        <ele>51</ele>
        <time>2021-05-10T07:32:59Z</time>
      </trkpt>
      <trkpt lat="48.47268" lon="-2.50434">
        <ele>52</ele>
        <time>2021-05-10T07:33:07Z</time>
      </trkpt>
      <trkpt lat="48.47279" lon="-2.50412">
        <ele>52.4</ele>
        <time>2021-05-10T07:33:14Z</time>
      </trkpt>
      <trkpt lat="48.47286" lon="-2.50424">
        <ele>53.2</ele>
        <time>2021-05-10T07:33:24Z</time>
      </trkpt>
      <trkpt lat="48.47284" lon="-2.50436">
        <ele>53.5</ele>
        <time>2021-05-10T07:33:32Z</time>
      </trkpt>
      <trkpt lat="48.47284" lon="-2.50449">
        <ele>54</ele>
        <time>2021-05-10T07:33:40Z</time>
      </trkpt>
      <trkpt lat="48.47285" lon="-2.5046">
        <ele>54.4</ele>
        <time>2021-05-10T07:33:46Z</time>
      </trkpt>
      <trkpt lat="48.47286" lon="-2.50474">
        <ele>54.078674316406</ele>
        <time>2021-05-10T07:33:52Z</time>
      </trkpt>
      <trkpt lat="48.47287" lon="-2.50486">
        <ele>54.381469726562</ele>
        <time>2021-05-10T07:34:00Z</time>
      </trkpt>
      <trkpt lat="48.47288" lon="-2.50499">
        <ele>54.614929199219</ele>
        <time>2021-05-10T07:34:07Z</time>
      </trkpt>
      <trkpt lat="48.47287" lon="-2.50512">
        <ele>53.584716796875</ele>
        <time>2021-05-10T07:34:16Z</time>
      </trkpt>
      <trkpt lat="48.47286" lon="-2.50525">
        <ele>54.125854492188</ele>
        <time>2021-05-10T07:34:24Z</time>
      </trkpt>
      <trkpt lat="48.47286" lon="-2.50537">
        <ele>53.249877929688</ele>
        <time>2021-05-10T07:34:31Z</time>
      </trkpt>
      <trkpt lat="48.47286" lon="-2.5055">
        <ele>53.477416992188</ele>
        <time>2021-05-10T07:34:39Z</time>
      </trkpt>
      <trkpt lat="48.47287" lon="-2.50564">
        <ele>57.098449707031</ele>
        <time>2021-05-10T07:35:14Z</time>
      </trkpt>
      <trkpt lat="48.47285" lon="-2.50577">
        <ele>57.7</ele>
        <time>2021-05-10T07:35:23Z</time>
      </trkpt>
      <trkpt lat="48.47284" lon="-2.5059">
        <ele>57.9</ele>
        <time>2021-05-10T07:35:29Z</time>
      </trkpt>
      <trkpt lat="48.47283" lon="-2.50605">
        <ele>58.1</ele>
        <time>2021-05-10T07:35:38Z</time>
      </trkpt>
      <trkpt lat="48.47284" lon="-2.50615">
        <ele>58.5</ele>
        <time>2021-05-10T07:36:32Z</time>
      </trkpt>
      <trkpt lat="48.47284" lon="-2.50627">
        <ele>58.7</ele>
        <time>2021-05-10T07:36:40Z</time>
      </trkpt>
      <trkpt lat="48.47281" lon="-2.50637">
        <ele>58.5</ele>
        <time>2021-05-10T07:36:48Z</time>
      </trkpt>
      <trkpt lat="48.47282" lon="-2.5065">
        <ele>59</ele>
        <time>2021-05-10T07:36:57Z</time>
      </trkpt>
      <trkpt lat="48.47284" lon="-2.50665">
        <ele>59.6</ele>
        <time>2021-05-10T07:37:05Z</time>
      </trkpt>
      <trkpt lat="48.47283" lon="-2.50678">
        <ele>60.1</ele>
        <time>2021-05-10T07:37:15Z</time>
      </trkpt>
      <trkpt lat="48.47284" lon="-2.50693">
        <ele>61</ele>
        <time>2021-05-10T07:37:23Z</time>
      </trkpt>
      <trkpt lat="48.47286" lon="-2.50706">
        <ele>61.9</ele>
        <time>2021-05-10T07:37:32Z</time>
      </trkpt>
      <trkpt lat="48.47286" lon="-2.50719">
        <ele>62.7</ele>
        <time>2021-05-10T07:37:39Z</time>
      </trkpt>
      <trkpt lat="48.4729" lon="-2.50731">
        <ele>64.2</ele>
        <time>2021-05-10T07:37:49Z</time>
      </trkpt>
      <trkpt lat="48.47291" lon="-2.50744">
        <ele>65</ele>
        <time>2021-05-10T07:37:58Z</time>
      </trkpt>
      <trkpt lat="48.47295" lon="-2.50757">
        <ele>66.7</ele>
        <time>2021-05-10T07:38:05Z</time>
      </trkpt>
      <trkpt lat="48.47297" lon="-2.50767">
        <ele>67.6</ele>
        <time>2021-05-10T07:38:12Z</time>
      </trkpt>
      <trkpt lat="48.47296" lon="-2.50774">
        <ele>67.7</ele>
        <time>2021-05-10T07:38:21Z</time>
      </trkpt>
      <trkpt lat="48.47295" lon="-2.50789">
        <ele>68.2</ele>
        <time>2021-05-10T07:38:29Z</time>
      </trkpt>
      <trkpt lat="48.47295" lon="-2.50802">
        <ele>68.7</ele>
        <time>2021-05-10T07:38:39Z</time>
      </trkpt>
      <trkpt lat="48.47297" lon="-2.50813">
        <ele>76.379943847656</ele>
        <time>2021-05-10T07:38:49Z</time>
      </trkpt>
      <trkpt lat="48.47297" lon="-2.50826">
        <ele>74.261840820312</ele>
        <time>2021-05-10T07:39:01Z</time>
      </trkpt>
      <trkpt lat="48.47296" lon="-2.50837">
        <ele>77.937622070312</ele>
        <time>2021-05-10T07:39:08Z</time>
      </trkpt>
      <trkpt lat="48.47295" lon="-2.5085">
        <ele>81.2236328125</ele>
        <time>2021-05-10T07:39:14Z</time>
      </trkpt>
      <trkpt lat="48.47301" lon="-2.50853">
        <ele>72.7</ele>
        <time>2021-05-10T07:39:28Z</time>
      </trkpt>
      <trkpt lat="48.47307" lon="-2.50857">
        <ele>74.4</ele>
        <time>2021-05-10T07:39:41Z</time>
      </trkpt>
      <trkpt lat="48.47314" lon="-2.50863">
        <ele>76.2</ele>
        <time>2021-05-10T07:39:48Z</time>
      </trkpt>
      <trkpt lat="48.47321" lon="-2.50867">
        <ele>86.099670410156</ele>
        <time>2021-05-10T07:39:55Z</time>
      </trkpt>
      <trkpt lat="48.47317" lon="-2.50876">
        <ele>86.999877929688</ele>
        <time>2021-05-10T07:40:56Z</time>
      </trkpt>
      <trkpt lat="48.47317" lon="-2.50889">
        <ele>89.5830078125</ele>
        <time>2021-05-10T07:41:04Z</time>
      </trkpt>
      <trkpt lat="48.47317" lon="-2.50901">
        <ele>87.755249023438</ele>
        <time>2021-05-10T07:41:12Z</time>
      </trkpt>
      <trkpt lat="48.47315" lon="-2.50914">
        <ele>89.49169921875</ele>
        <time>2021-05-10T07:41:36Z</time>
      </trkpt>
      <trkpt lat="48.4731" lon="-2.50924">
        <ele>87.852294921875</ele>
        <time>2021-05-10T07:42:29Z</time>
      </trkpt>
      <trkpt lat="48.47316" lon="-2.50916">
        <ele>90.995300292969</ele>
        <time>2021-05-10T07:42:45Z</time>
      </trkpt>
      <trkpt lat="48.47324" lon="-2.50912">
        <ele>90.005126953125</ele>
        <time>2021-05-10T07:42:53Z</time>
      </trkpt>
      <trkpt lat="48.47324" lon="-2.50899">
        <ele>89.681884765625</ele>
        <time>2021-05-10T07:43:02Z</time>
      </trkpt>
      <trkpt lat="48.47332" lon="-2.50896">
        <ele>86.329528808594</ele>
        <time>2021-05-10T07:43:14Z</time>
      </trkpt>
      <trkpt lat="48.4734" lon="-2.50903">
        <ele>84.640014648438</ele>
        <time>2021-05-10T07:43:21Z</time>
      </trkpt>
      <trkpt lat="48.47343" lon="-2.50914">
        <ele>80.537170410156</ele>
        <time>2021-05-10T07:43:39Z</time>
      </trkpt>
      <trkpt lat="48.47339" lon="-2.50925">
        <ele>84.741333007812</ele>
        <time>2021-05-10T07:43:50Z</time>
      </trkpt>
      <trkpt lat="48.47333" lon="-2.50935">
        <ele>81.51708984375</ele>
        <time>2021-05-10T07:43:58Z</time>
      </trkpt>
      <trkpt lat="48.4733" lon="-2.50946">
        <ele>83.900146484375</ele>
        <time>2021-05-10T07:44:09Z</time>
      </trkpt>
      <trkpt lat="48.47327" lon="-2.50958">
        <ele>78.3</ele>
        <time>2021-05-10T07:44:17Z</time>
      </trkpt>
      <trkpt lat="48.4732" lon="-2.50963">
        <ele>77.2</ele>
        <time>2021-05-10T07:44:23Z</time>
      </trkpt>
      <trkpt lat="48.47313" lon="-2.50972">
        <ele>86.243957519531</ele>
        <time>2021-05-10T07:44:27Z</time>
      </trkpt>
      <trkpt lat="48.47305" lon="-2.50978">
        <ele>84.745849609375</ele>
        <time>2021-05-10T07:44:36Z</time>
      </trkpt>
      <trkpt lat="48.47302" lon="-2.5099">
        <ele>83.169006347656</ele>
        <time>2021-05-10T07:44:46Z</time>
      </trkpt>
      <trkpt lat="48.47296" lon="-2.50999">
        <ele>81.058471679688</ele>
        <time>2021-05-10T07:44:55Z</time>
      </trkpt>
      <trkpt lat="48.4729" lon="-2.51007">
        <ele>79.614440917969</ele>
        <time>2021-05-10T07:45:03Z</time>
      </trkpt>
      <trkpt lat="48.47282" lon="-2.51013">
        <ele>79.378295898438</ele>
        <time>2021-05-10T07:45:08Z</time>
      </trkpt>
      <trkpt lat="48.47275" lon="-2.51018">
        <ele>80.370727539062</ele>
        <time>2021-05-10T07:45:13Z</time>
      </trkpt>
      <trkpt lat="48.47267" lon="-2.51021">
        <ele>74.420288085938</ele>
        <time>2021-05-10T07:45:23Z</time>
      </trkpt>
      <trkpt lat="48.4726" lon="-2.51029">
        <ele>76.282043457031</ele>
        <time>2021-05-10T07:45:34Z</time>
      </trkpt>
      <trkpt lat="48.47253" lon="-2.51036">
        <ele>75.833801269531</ele>
        <time>2021-05-10T07:46:02Z</time>
      </trkpt>
      <trkpt lat="48.47245" lon="-2.51042">
        <ele>73.635437011719</ele>
        <time>2021-05-10T07:46:09Z</time>
      </trkpt>
      <trkpt lat="48.47238" lon="-2.51046">
        <ele>74.653442382812</ele>
        <time>2021-05-10T07:46:16Z</time>
      </trkpt>
      <trkpt lat="48.47231" lon="-2.51052">
        <ele>75.027282714844</ele>
        <time>2021-05-10T07:46:21Z</time>
      </trkpt>
      <trkpt lat="48.47226" lon="-2.51062">
        <ele>73.915893554688</ele>
        <time>2021-05-10T07:46:28Z</time>
      </trkpt>
      <trkpt lat="48.47225" lon="-2.51074">
        <ele>73.49462890625</ele>
        <time>2021-05-10T07:46:33Z</time>
      </trkpt>
      <trkpt lat="48.4722" lon="-2.51086">
        <ele>71.757385253906</ele>
        <time>2021-05-10T07:46:41Z</time>
      </trkpt>
      <trkpt lat="48.47217" lon="-2.51097">
        <ele>68.072692871094</ele>
        <time>2021-05-10T07:46:48Z</time>
      </trkpt>
      <trkpt lat="48.47215" lon="-2.51109">
        <ele>68.896667480469</ele>
        <time>2021-05-10T07:46:53Z</time>
      </trkpt>
      <trkpt lat="48.47211" lon="-2.5112">
        <ele>67.829895019531</ele>
        <time>2021-05-10T07:47:01Z</time>
      </trkpt>
      <trkpt lat="48.47208" lon="-2.51132">
        <ele>67.689147949219</ele>
        <time>2021-05-10T07:47:08Z</time>
      </trkpt>
      <trkpt lat="48.47202" lon="-2.51142">
        <ele>64.547729492188</ele>
        <time>2021-05-10T07:47:16Z</time>
      </trkpt>
      <trkpt lat="48.47194" lon="-2.51154">
        <ele>66.6</ele>
        <time>2021-05-10T07:47:22Z</time>
      </trkpt>
      <trkpt lat="48.47195" lon="-2.51165">
        <ele>67.1</ele>
        <time>2021-05-10T07:47:28Z</time>
      </trkpt>
      <trkpt lat="48.47193" lon="-2.51172">
        <ele>62.400268554688</ele>
        <time>2021-05-10T07:47:36Z</time>
      </trkpt>
      <trkpt lat="48.47185" lon="-2.51175">
        <ele>60.2294921875</ele>
        <time>2021-05-10T07:47:40Z</time>
      </trkpt>
      <trkpt lat="48.47177" lon="-2.5118">
        <ele>61.780883789062</ele>
        <time>2021-05-10T07:47:47Z</time>
      </trkpt>
      <trkpt lat="48.47169" lon="-2.5118">
        <ele>63.30078125</ele>
        <time>2021-05-10T07:47:53Z</time>
      </trkpt>
      <trkpt lat="48.47163" lon="-2.51187">
        <ele>70.5</ele>
        <time>2021-05-10T07:48:09Z</time>
      </trkpt>
      <trkpt lat="48.47154" lon="-2.51197">
        <ele>67.451843261719</ele>
        <time>2021-05-10T07:48:14Z</time>
      </trkpt>
      <trkpt lat="48.47146" lon="-2.51201">
        <ele>74.534423828125</ele>
        <time>2021-05-10T07:48:20Z</time>
      </trkpt>
      <trkpt lat="48.47139" lon="-2.51207">
        <ele>74.049560546875</ele>
        <time>2021-05-10T07:48:27Z</time>
      </trkpt>
      <trkpt lat="48.47131" lon="-2.51209">
        <ele>76.913146972656</ele>
        <time>2021-05-10T07:48:34Z</time>
      </trkpt>
      <trkpt lat="48.47123" lon="-2.51209">
        <ele>76.188293457031</ele>
        <time>2021-05-10T07:49:04Z</time>
      </trkpt>
      <trkpt lat="48.47115" lon="-2.51213">
        <ele>77.1044921875</ele>
        <time>2021-05-10T07:49:11Z</time>
      </trkpt>
      <trkpt lat="48.4711" lon="-2.51211">
        <ele>69.3</ele>
        <time>2021-05-10T07:49:34Z</time>
      </trkpt>
      <trkpt lat="48.47105" lon="-2.5121">
        <ele>77.257690429688</ele>
        <time>2021-05-10T07:50:33Z</time>
      </trkpt>
      <trkpt lat="48.47098" lon="-2.51217">
        <ele>76.85400390625</ele>
        <time>2021-05-10T07:50:42Z</time>
      </trkpt>
      <trkpt lat="48.47092" lon="-2.51227">
        <ele>76.609008789062</ele>
        <time>2021-05-10T07:50:50Z</time>
      </trkpt>
      <trkpt lat="48.47088" lon="-2.51238">
        <ele>75.916198730469</ele>
        <time>2021-05-10T07:50:58Z</time>
      </trkpt>
      <trkpt lat="48.47086" lon="-2.5125">
        <ele>75.636047363281</ele>
        <time>2021-05-10T07:51:05Z</time>
      </trkpt>
      <trkpt lat="48.47078" lon="-2.51256">
        <ele>71.719482421875</ele>
        <time>2021-05-10T07:51:15Z</time>
      </trkpt>
      <trkpt lat="48.47074" lon="-2.51246">
        <ele>70.444946289062</ele>
        <time>2021-05-10T07:51:22Z</time>
      </trkpt>
      <trkpt lat="48.47068" lon="-2.51236">
        <ele>75.519470214844</ele>
        <time>2021-05-10T07:52:27Z</time>
      </trkpt>
      <trkpt lat="48.47061" lon="-2.51244">
        <ele>74.795776367188</ele>
        <time>2021-05-10T07:54:16Z</time>
      </trkpt>
      <trkpt lat="48.47069" lon="-2.51247">
        <ele>74.733825683594</ele>
        <time>2021-05-10T07:57:11Z</time>
      </trkpt>
      <trkpt lat="48.47077" lon="-2.51251">
        <ele>76.325927734375</ele>
        <time>2021-05-10T07:57:19Z</time>
      </trkpt>
      <trkpt lat="48.47085" lon="-2.51252">
        <ele>80.091674804688</ele>
        <time>2021-05-10T07:57:35Z</time>
      </trkpt>
      <trkpt lat="48.47092" lon="-2.51243">
        <ele>76.44775390625</ele>
        <time>2021-05-10T07:57:40Z</time>
      </trkpt>
      <trkpt lat="48.47099" lon="-2.51238">
        <ele>74.090393066406</ele>
        <time>2021-05-10T07:57:50Z</time>
      </trkpt>
      <trkpt lat="48.47107" lon="-2.51243">
        <ele>75.465576171875</ele>
        <time>2021-05-10T07:57:55Z</time>
      </trkpt>
      <trkpt lat="48.47115" lon="-2.51249">
        <ele>75.038330078125</ele>
        <time>2021-05-10T07:58:03Z</time>
      </trkpt>
      <trkpt lat="48.47116" lon="-2.51262">
        <ele>78.69775390625</ele>
        <time>2021-05-10T07:58:11Z</time>
      </trkpt>
      <trkpt lat="48.47121" lon="-2.51271">
        <ele>85.636047363281</ele>
        <time>2021-05-10T07:59:28Z</time>
      </trkpt>
      <trkpt lat="48.47128" lon="-2.5128">
        <ele>79.309204101562</ele>
        <time>2021-05-10T07:59:36Z</time>
      </trkpt>
      <trkpt lat="48.47132" lon="-2.51291">
        <ele>77.298278808594</ele>
        <time>2021-05-10T07:59:57Z</time>
      </trkpt>
      <trkpt lat="48.47139" lon="-2.51299">
        <ele>76.889526367188</ele>
        <time>2021-05-10T08:00:02Z</time>
      </trkpt>
      <trkpt lat="48.47139" lon="-2.51311">
        <ele>78.918334960938</ele>
        <time>2021-05-10T08:00:11Z</time>
      </trkpt>
      <trkpt lat="48.47144" lon="-2.51322">
        <ele>75.3154296875</ele>
        <time>2021-05-10T08:00:20Z</time>
      </trkpt>
      <trkpt lat="48.47143" lon="-2.51334">
        <ele>71.91357421875</ele>
        <time>2021-05-10T08:00:35Z</time>
      </trkpt>
      <trkpt lat="48.47138" lon="-2.51344">
        <ele>71.815185546875</ele>
        <time>2021-05-10T08:00:41Z</time>
      </trkpt>
      <trkpt lat="48.47132" lon="-2.51353">
        <ele>68.740356445312</ele>
        <time>2021-05-10T08:00:47Z</time>
      </trkpt>
      <trkpt lat="48.47128" lon="-2.51364">
        <ele>69.210693359375</ele>
        <time>2021-05-10T08:01:02Z</time>
      </trkpt>
      <trkpt lat="48.47126" lon="-2.51378">
        <ele>68.951965332031</ele>
        <time>2021-05-10T08:01:19Z</time>
      </trkpt>
      <trkpt lat="48.4712" lon="-2.51387">
        <ele>66.748107910156</ele>
        <time>2021-05-10T08:01:31Z</time>
      </trkpt>
      <trkpt lat="48.47116" lon="-2.51398">
        <ele>65.238159179688</ele>
        <time>2021-05-10T08:01:40Z</time>
      </trkpt>
      <trkpt lat="48.47111" lon="-2.51408">
        <ele>64.423156738281</ele>
        <time>2021-05-10T08:01:48Z</time>
      </trkpt>
      <trkpt lat="48.47106" lon="-2.51419">
        <ele>62.450622558594</ele>
        <time>2021-05-10T08:01:57Z</time>
      </trkpt>
      <trkpt lat="48.47101" lon="-2.51429">
        <ele>63.619750976562</ele>
        <time>2021-05-10T08:02:31Z</time>
      </trkpt>
      <trkpt lat="48.47099" lon="-2.51441">
        <ele>65.479553222656</ele>
        <time>2021-05-10T08:10:46Z</time>
      </trkpt>
      <trkpt lat="48.47104" lon="-2.51451">
        <ele>64.94775390625</ele>
        <time>2021-05-10T08:10:53Z</time>
      </trkpt>
      <trkpt lat="48.47103" lon="-2.51465">
        <ele>62.168640136719</ele>
        <time>2021-05-10T08:11:03Z</time>
      </trkpt>
      <trkpt lat="48.47103" lon="-2.51475">
        <ele>59.316772460938</ele>
        <time>2021-05-10T08:11:17Z</time>
      </trkpt>
      <trkpt lat="48.47106" lon="-2.51487">
        <ele>57.232788085938</ele>
        <time>2021-05-10T08:11:25Z</time>
      </trkpt>
      <trkpt lat="48.47111" lon="-2.51496">
        <ele>56.772888183594</ele>
        <time>2021-05-10T08:11:32Z</time>
      </trkpt>
      <trkpt lat="48.47103" lon="-2.51491">
        <ele>53.284057617188</ele>
        <time>2021-05-10T08:11:47Z</time>
      </trkpt>
      <trkpt lat="48.47096" lon="-2.51494">
        <ele>59.6</ele>
        <time>2021-05-10T08:11:52Z</time>
      </trkpt>
      <trkpt lat="48.47087" lon="-2.51491">
        <ele>60.6</ele>
        <time>2021-05-10T08:11:59Z</time>
      </trkpt>
      <trkpt lat="48.47078" lon="-2.5149">
        <ele>60.8</ele>
        <time>2021-05-10T08:12:04Z</time>
      </trkpt>
      <trkpt lat="48.47071" lon="-2.51486">
        <ele>61.2</ele>
        <time>2021-05-10T08:12:12Z</time>
      </trkpt>
      <trkpt lat="48.47064" lon="-2.51484">
        <ele>61.2</ele>
        <time>2021-05-10T08:12:19Z</time>
      </trkpt>
      <trkpt lat="48.47056" lon="-2.51483">
        <ele>52.859008789062</ele>
        <time>2021-05-10T08:12:25Z</time>
      </trkpt>
      <trkpt lat="48.47049" lon="-2.51485">
        <ele>53.642761230469</ele>
        <time>2021-05-10T08:12:30Z</time>
      </trkpt>
      <trkpt lat="48.47041" lon="-2.51488">
        <ele>49.173889160156</ele>
        <time>2021-05-10T08:12:38Z</time>
      </trkpt>
      <trkpt lat="48.47033" lon="-2.51491">
        <ele>51.378051757812</ele>
        <time>2021-05-10T08:12:44Z</time>
      </trkpt>
      <trkpt lat="48.47026" lon="-2.5149">
        <ele>60</ele>
        <time>2021-05-10T08:12:59Z</time>
      </trkpt>
      <trkpt lat="48.47018" lon="-2.51492">
        <ele>51.199768066406</ele>
        <time>2021-05-10T08:13:04Z</time>
      </trkpt>
      <trkpt lat="48.4701" lon="-2.51497">
        <ele>49.953308105469</ele>
        <time>2021-05-10T08:13:10Z</time>
      </trkpt>
      <trkpt lat="48.47002" lon="-2.515">
        <ele>53.419677734375</ele>
        <time>2021-05-10T08:13:16Z</time>
      </trkpt>
      <trkpt lat="48.46996" lon="-2.51505">
        <ele>58.7</ele>
        <time>2021-05-10T08:13:21Z</time>
      </trkpt>
      <trkpt lat="48.46988" lon="-2.51511">
        <ele>58.4</ele>
        <time>2021-05-10T08:13:27Z</time>
      </trkpt>
      <trkpt lat="48.46981" lon="-2.51515">
        <ele>55.485473632812</ele>
        <time>2021-05-10T08:13:41Z</time>
      </trkpt>
      <trkpt lat="48.46973" lon="-2.51521">
        <ele>51.438598632812</ele>
        <time>2021-05-10T08:14:03Z</time>
      </trkpt>
      <trkpt lat="48.46967" lon="-2.51528">
        <ele>48.840209960938</ele>
        <time>2021-05-10T08:14:11Z</time>
      </trkpt>
      <trkpt lat="48.4696" lon="-2.51537">
        <ele>51.450866699219</ele>
        <time>2021-05-10T08:14:19Z</time>
      </trkpt>
      <trkpt lat="48.46954" lon="-2.51546">
        <ele>53.683349609375</ele>
        <time>2021-05-10T08:14:47Z</time>
      </trkpt>
      <trkpt lat="48.46949" lon="-2.51557">
        <ele>55.162109375</ele>
        <time>2021-05-10T08:15:21Z</time>
      </trkpt>
      <trkpt lat="48.46942" lon="-2.51562">
        <ele>54.080505371094</ele>
        <time>2021-05-10T08:15:26Z</time>
      </trkpt>
      <trkpt lat="48.46934" lon="-2.51568">
        <ele>53.633972167969</ele>
        <time>2021-05-10T08:16:22Z</time>
      </trkpt>
      <trkpt lat="48.46932" lon="-2.5158">
        <ele>50.284973144531</ele>
        <time>2021-05-10T08:16:28Z</time>
      </trkpt>
      <trkpt lat="48.46937" lon="-2.51592">
        <ele>48.396423339844</ele>
        <time>2021-05-10T08:16:35Z</time>
      </trkpt>
      <trkpt lat="48.46941" lon="-2.51602">
        <ele>48.903198242188</ele>
        <time>2021-05-10T08:16:40Z</time>
      </trkpt>
      <trkpt lat="48.46945" lon="-2.51611">
        <ele>55.1</ele>
        <time>2021-05-10T08:16:48Z</time>
      </trkpt>
      <trkpt lat="48.46949" lon="-2.51621">
        <ele>54.8</ele>
        <time>2021-05-10T08:16:56Z</time>
      </trkpt>
      <trkpt lat="48.46954" lon="-2.51631">
        <ele>54.3</ele>
        <time>2021-05-10T08:17:02Z</time>
      </trkpt>
      <trkpt lat="48.46959" lon="-2.51642">
        <ele>53.9</ele>
        <time>2021-05-10T08:17:07Z</time>
      </trkpt>
      <trkpt lat="48.46965" lon="-2.51653">
        <ele>53.4</ele>
        <time>2021-05-10T08:17:13Z</time>
      </trkpt>
      <trkpt lat="48.4697" lon="-2.51664">
        <ele>52.9</ele>
        <time>2021-05-10T08:17:22Z</time>
      </trkpt>
      <trkpt lat="48.46971" lon="-2.51673">
        <ele>52.5</ele>
        <time>2021-05-10T08:17:30Z</time>
      </trkpt>
      <trkpt lat="48.46975" lon="-2.51683">
        <ele>52.2</ele>
        <time>2021-05-10T08:17:36Z</time>
      </trkpt>
      <trkpt lat="48.4699" lon="-2.51681">
        <ele>53.306640625</ele>
        <time>2021-05-10T08:17:45Z</time>
      </trkpt>
      <trkpt lat="48.46998" lon="-2.51681">
        <ele>52.43212890625</ele>
        <time>2021-05-10T08:17:57Z</time>
      </trkpt>
      <trkpt lat="48.47005" lon="-2.5168">
        <ele>51.7</ele>
      </trkpt>
      <trkpt lat="48.47017" lon="-2.51678">
        <ele>50.998718261719</ele>
        <time>2021-05-10T08:20:08Z</time>
      </trkpt>
      <trkpt lat="48.47026" lon="-2.51676">
        <ele>47.103088378906</ele>
        <time>2021-05-10T08:20:16Z</time>
      </trkpt>
      <trkpt lat="48.47034" lon="-2.51676">
        <ele>49.402099609375</ele>
        <time>2021-05-10T08:20:24Z</time>
      </trkpt>
      <trkpt lat="48.47043" lon="-2.51675">
        <ele>51.376159667969</ele>
        <time>2021-05-10T08:20:31Z</time>
      </trkpt>
      <trkpt lat="48.47052" lon="-2.51673">
        <ele>51.926696777344</ele>
        <time>2021-05-10T08:20:37Z</time>
      </trkpt>
      <trkpt lat="48.47059" lon="-2.51667">
        <ele>50.550537109375</ele>
        <time>2021-05-10T08:20:43Z</time>
      </trkpt>
      <trkpt lat="48.47067" lon="-2.51674">
        <ele>44.1796875</ele>
        <time>2021-05-10T08:21:00Z</time>
      </trkpt>
      <trkpt lat="48.47074" lon="-2.5168">
        <ele>42.895568847656</ele>
        <time>2021-05-10T08:21:11Z</time>
      </trkpt>
      <trkpt lat="48.47078" lon="-2.51691">
        <ele>42.566040039062</ele>
        <time>2021-05-10T08:21:18Z</time>
      </trkpt>
      <trkpt lat="48.47082" lon="-2.51701">
        <ele>43.488647460938</ele>
        <time>2021-05-10T08:21:24Z</time>
      </trkpt>
      <trkpt lat="48.47085" lon="-2.51713">
        <ele>45.3759765625</ele>
        <time>2021-05-10T08:21:34Z</time>
      </trkpt>
      <trkpt lat="48.47086" lon="-2.51726">
        <ele>47.49072265625</ele>
        <time>2021-05-10T08:21:44Z</time>
      </trkpt>
      <trkpt lat="48.47087" lon="-2.51732">
        <ele>50.922180175781</ele>
        <time>2021-05-10T08:25:34Z</time>
      </trkpt>
      <trkpt lat="48.47094" lon="-2.51739">
        <ele>51</ele>
        <time>2021-05-10T08:25:41Z</time>
      </trkpt>
      <trkpt lat="48.471" lon="-2.51747">
        <ele>50.7</ele>
        <time>2021-05-10T08:25:47Z</time>
      </trkpt>
      <trkpt lat="48.47103" lon="-2.51752">
        <ele>50.5</ele>
        <time>2021-05-10T08:25:52Z</time>
      </trkpt>
      <trkpt lat="48.47105" lon="-2.5176">
        <ele>50.1</ele>
      </trkpt>
      <trkpt lat="48.47109" lon="-2.51766">
        <ele>49.8</ele>
        <time>2021-05-10T08:25:59Z</time>
      </trkpt>
      <trkpt lat="48.47113" lon="-2.51775">
        <ele>49.4</ele>
        <time>2021-05-10T08:26:22Z</time>
      </trkpt>
      <trkpt lat="48.47116" lon="-2.51782">
        <ele>49.1</ele>
        <time>2021-05-10T08:26:27Z</time>
      </trkpt>
      <trkpt lat="48.47121" lon="-2.51793">
        <ele>48.5</ele>
        <time>2021-05-10T08:26:35Z</time>
      </trkpt>
      <trkpt lat="48.47126" lon="-2.51806">
        <ele>48</ele>
        <time>2021-05-10T08:26:40Z</time>
      </trkpt>
      <trkpt lat="48.47131" lon="-2.51816">
        <ele>47.5</ele>
        <time>2021-05-10T08:26:46Z</time>
      </trkpt>
      <trkpt lat="48.47137" lon="-2.51828">
        <ele>46.9</ele>
        <time>2021-05-10T08:26:54Z</time>
      </trkpt>
      <trkpt lat="48.47143" lon="-2.51841">
        <ele>46.5</ele>
        <time>2021-05-10T08:26:59Z</time>
      </trkpt>
      <trkpt lat="48.47147" lon="-2.51848">
        <ele>46.4</ele>
        <time>2021-05-10T08:27:05Z</time>
      </trkpt>
      <trkpt lat="48.47153" lon="-2.51855">
        <ele>46.2</ele>
        <time>2021-05-10T08:27:15Z</time>
      </trkpt>
      <trkpt lat="48.47163" lon="-2.51854">
        <ele>50.983825683594</ele>
        <time>2021-05-10T08:27:30Z</time>
      </trkpt>
      <trkpt lat="48.47169" lon="-2.51844">
        <ele>46</ele>
        <time>2021-05-10T08:27:41Z</time>
      </trkpt>
      <trkpt lat="48.47175" lon="-2.51837">
        <ele>46</ele>
        <time>2021-05-10T08:27:46Z</time>
      </trkpt>
      <trkpt lat="48.47179" lon="-2.51828">
        <ele>46.2</ele>
        <time>2021-05-10T08:27:52Z</time>
      </trkpt>
      <trkpt lat="48.47184" lon="-2.51819">
        <ele>50.096923828125</ele>
        <time>2021-05-10T08:27:56Z</time>
      </trkpt>
      <trkpt lat="48.47192" lon="-2.51814">
        <ele>52.817077636719</ele>
        <time>2021-05-10T08:28:01Z</time>
      </trkpt>
      <trkpt lat="48.47198" lon="-2.51806">
        <ele>50.491271972656</ele>
        <time>2021-05-10T08:28:07Z</time>
      </trkpt>
      <trkpt lat="48.47204" lon="-2.51798">
        <ele>48.910766601562</ele>
        <time>2021-05-10T08:28:15Z</time>
      </trkpt>
      <trkpt lat="48.47211" lon="-2.51792">
        <ele>48.690124511719</ele>
        <time>2021-05-10T08:28:20Z</time>
      </trkpt>
      <trkpt lat="48.47215" lon="-2.5178">
        <ele>49.295776367188</ele>
        <time>2021-05-10T08:28:27Z</time>
      </trkpt>
      <trkpt lat="48.47219" lon="-2.5177">
        <ele>52.067504882812</ele>
        <time>2021-05-10T08:28:32Z</time>
      </trkpt>
      <trkpt lat="48.47228" lon="-2.51769">
        <ele>56.569519042969</ele>
        <time>2021-05-10T08:28:36Z</time>
      </trkpt>
      <trkpt lat="48.47236" lon="-2.51775">
        <ele>54.08447265625</ele>
        <time>2021-05-10T08:28:46Z</time>
      </trkpt>
      <trkpt lat="48.47242" lon="-2.51784">
        <ele>49.202514648438</ele>
        <time>2021-05-10T08:29:01Z</time>
      </trkpt>
      <trkpt lat="48.47246" lon="-2.5179">
        <ele>46.1</ele>
        <time>2021-05-10T08:29:10Z</time>
      </trkpt>
      <trkpt lat="48.47256" lon="-2.518">
        <ele>43.430419921875</ele>
        <time>2021-05-10T08:29:15Z</time>
      </trkpt>
      <trkpt lat="48.47263" lon="-2.51805">
        <ele>46.2548828125</ele>
        <time>2021-05-10T08:29:20Z</time>
      </trkpt>
      <trkpt lat="48.47269" lon="-2.51813">
        <ele>46.5</ele>
        <time>2021-05-10T08:29:27Z</time>
      </trkpt>
      <trkpt lat="48.47275" lon="-2.51819">
        <ele>46.7</ele>
        <time>2021-05-10T08:29:38Z</time>
      </trkpt>
      <trkpt lat="48.47282" lon="-2.51829">
        <ele>46.8</ele>
        <time>2021-05-10T08:29:43Z</time>
      </trkpt>
      <trkpt lat="48.47289" lon="-2.51831">
        <ele>46.9</ele>
        <time>2021-05-10T08:29:51Z</time>
      </trkpt>
      <trkpt lat="48.47297" lon="-2.51835">
        <ele>45.505126953125</ele>
        <time>2021-05-10T08:30:08Z</time>
      </trkpt>
      <trkpt lat="48.47315" lon="-2.51845">
        <ele>47.5</ele>
      </trkpt>
      <trkpt lat="48.47314" lon="-2.51865">
        <ele>46.700500488281</ele>
        <time>2021-05-10T08:42:31Z</time>
      </trkpt>
      <trkpt lat="48.47316" lon="-2.51878">
        <ele>47.266052246094</ele>
        <time>2021-05-10T08:42:39Z</time>
      </trkpt>
      <trkpt lat="48.47315" lon="-2.51889">
        <ele>45.910888671875</ele>
        <time>2021-05-10T08:42:47Z</time>
      </trkpt>
      <trkpt lat="48.47309" lon="-2.51901">
        <ele>45.298400878906</ele>
        <time>2021-05-10T08:42:51Z</time>
      </trkpt>
      <trkpt lat="48.47303" lon="-2.5191">
        <ele>47.716491699219</ele>
        <time>2021-05-10T08:42:57Z</time>
      </trkpt>
      <trkpt lat="48.473" lon="-2.51923">
        <ele>49.51416015625</ele>
        <time>2021-05-10T08:43:02Z</time>
      </trkpt>
      <trkpt lat="48.47304" lon="-2.51932">
        <ele>53.057861328125</ele>
        <time>2021-05-10T08:43:09Z</time>
      </trkpt>
      <trkpt lat="48.47302" lon="-2.51945">
        <ele>53.207580566406</ele>
        <time>2021-05-10T08:43:19Z</time>
      </trkpt>
      <trkpt lat="48.47298" lon="-2.51956">
        <ele>51.676147460938</ele>
        <time>2021-05-10T08:43:25Z</time>
      </trkpt>
      <trkpt lat="48.47298" lon="-2.51967">
        <ele>56.270263671875</ele>
        <time>2021-05-10T08:43:31Z</time>
      </trkpt>
      <trkpt lat="48.47295" lon="-2.51979">
        <ele>56.652893066406</ele>
        <time>2021-05-10T08:43:36Z</time>
      </trkpt>
      <trkpt lat="48.47293" lon="-2.51991">
        <ele>56.282043457031</ele>
        <time>2021-05-10T08:43:44Z</time>
      </trkpt>
      <trkpt lat="48.4729" lon="-2.52002">
        <ele>46.4</ele>
        <time>2021-05-10T08:43:54Z</time>
      </trkpt>
      <trkpt lat="48.47285" lon="-2.52012">
        <ele>46.1</ele>
        <time>2021-05-10T08:44:00Z</time>
      </trkpt>
      <trkpt lat="48.47285" lon="-2.52025">
        <ele>52.270263671875</ele>
        <time>2021-05-10T08:44:05Z</time>
      </trkpt>
      <trkpt lat="48.47279" lon="-2.52033">
        <ele>47.709533691406</ele>
        <time>2021-05-10T08:44:13Z</time>
      </trkpt>
      <trkpt lat="48.47274" lon="-2.52043">
        <ele>45.801635742188</ele>
        <time>2021-05-10T08:44:47Z</time>
      </trkpt>
      <trkpt lat="48.47268" lon="-2.52051">
        <ele>44.984619140625</ele>
        <time>2021-05-10T08:44:52Z</time>
      </trkpt>
      <trkpt lat="48.47261" lon="-2.52058">
        <ele>44.736145019531</ele>
        <time>2021-05-10T08:45:02Z</time>
      </trkpt>
      <trkpt lat="48.47253" lon="-2.5206">
        <ele>44.547485351562</ele>
        <time>2021-05-10T08:45:09Z</time>
      </trkpt>
      <trkpt lat="48.47245" lon="-2.52066">
        <ele>45.424560546875</ele>
        <time>2021-05-10T08:45:25Z</time>
      </trkpt>
      <trkpt lat="48.47238" lon="-2.52073">
        <ele>47.855346679688</ele>
        <time>2021-05-10T08:46:34Z</time>
      </trkpt>
      <trkpt lat="48.4723" lon="-2.52077">
        <ele>49.269775390625</ele>
        <time>2021-05-10T08:46:40Z</time>
      </trkpt>
      <trkpt lat="48.47222" lon="-2.52081">
        <ele>45.682312011719</ele>
        <time>2021-05-10T08:46:49Z</time>
      </trkpt>
      <trkpt lat="48.47214" lon="-2.52085">
        <ele>47.040161132812</ele>
        <time>2021-05-10T08:46:55Z</time>
      </trkpt>
      <trkpt lat="48.47207" lon="-2.52089">
        <ele>49.689697265625</ele>
        <time>2021-05-10T08:46:59Z</time>
      </trkpt>
      <trkpt lat="48.472" lon="-2.52095">
        <ele>47.588562011719</ele>
        <time>2021-05-10T08:47:06Z</time>
      </trkpt>
      <trkpt lat="48.47192" lon="-2.52098">
        <ele>45.776489257812</ele>
        <time>2021-05-10T08:47:12Z</time>
      </trkpt>
      <trkpt lat="48.47184" lon="-2.52101">
        <ele>49.40966796875</ele>
        <time>2021-05-10T08:47:18Z</time>
      </trkpt>
      <trkpt lat="48.47176" lon="-2.52107">
        <ele>51.448486328125</ele>
        <time>2021-05-10T08:47:24Z</time>
      </trkpt>
      <trkpt lat="48.47168" lon="-2.52109">
        <ele>52.061279296875</ele>
        <time>2021-05-10T08:47:31Z</time>
      </trkpt>
      <trkpt lat="48.4716" lon="-2.52113">
        <ele>54.44873046875</ele>
        <time>2021-05-10T08:47:39Z</time>
      </trkpt>
      <trkpt lat="48.47152" lon="-2.52118">
        <ele>52.386413574219</ele>
        <time>2021-05-10T08:47:49Z</time>
      </trkpt>
      <trkpt lat="48.47143" lon="-2.52118">
        <ele>51.824890136719</ele>
        <time>2021-05-10T08:47:56Z</time>
      </trkpt>
      <trkpt lat="48.47135" lon="-2.52119">
        <ele>56.863586425781</ele>
        <time>2021-05-10T08:48:01Z</time>
      </trkpt>
      <trkpt lat="48.47128" lon="-2.52123">
        <ele>55.587585449219</ele>
        <time>2021-05-10T08:48:07Z</time>
      </trkpt>
      <trkpt lat="48.4712" lon="-2.52125">
        <ele>57.694030761719</ele>
        <time>2021-05-10T08:48:13Z</time>
      </trkpt>
      <trkpt lat="48.47112" lon="-2.52127">
        <ele>59.043395996094</ele>
        <time>2021-05-10T08:48:19Z</time>
      </trkpt>
      <trkpt lat="48.47105" lon="-2.52134">
        <ele>59.240234375</ele>
        <time>2021-05-10T08:48:33Z</time>
      </trkpt>
      <trkpt lat="48.471" lon="-2.52145">
        <ele>53.199279785156</ele>
        <time>2021-05-10T08:48:41Z</time>
      </trkpt>
      <trkpt lat="48.47094" lon="-2.52155">
        <ele>52.688049316406</ele>
        <time>2021-05-10T08:48:50Z</time>
      </trkpt>
      <trkpt lat="48.47087" lon="-2.52161">
        <ele>50.543273925781</ele>
        <time>2021-05-10T08:48:56Z</time>
      </trkpt>
      <trkpt lat="48.47079" lon="-2.52166">
        <ele>47.390869140625</ele>
        <time>2021-05-10T08:49:02Z</time>
      </trkpt>
      <trkpt lat="48.47072" lon="-2.52173">
        <ele>50.544006347656</ele>
        <time>2021-05-10T08:49:09Z</time>
      </trkpt>
      <trkpt lat="48.47067" lon="-2.5218">
        <ele>48.427001953125</ele>
        <time>2021-05-10T08:49:14Z</time>
      </trkpt>
      <trkpt lat="48.4706" lon="-2.52188">
        <ele>47.655822753906</ele>
        <time>2021-05-10T08:49:22Z</time>
      </trkpt>
      <trkpt lat="48.47055" lon="-2.52198">
        <ele>46.130126953125</ele>
        <time>2021-05-10T08:49:28Z</time>
      </trkpt>
      <trkpt lat="48.47052" lon="-2.52208">
        <ele>48.392211914062</ele>
        <time>2021-05-10T08:49:33Z</time>
      </trkpt>
      <trkpt lat="48.47048" lon="-2.52219">
        <ele>50.578491210938</ele>
        <time>2021-05-10T08:49:39Z</time>
      </trkpt>
      <trkpt lat="48.47047" lon="-2.52232">
        <ele>50.049438476562</ele>
        <time>2021-05-10T08:49:44Z</time>
      </trkpt>
      <trkpt lat="48.47043" lon="-2.5224">
        <ele>47.190307617188</ele>
        <time>2021-05-10T08:49:50Z</time>
      </trkpt>
      <trkpt lat="48.47041" lon="-2.52255">
        <ele>50.558349609375</ele>
        <time>2021-05-10T08:49:55Z</time>
      </trkpt>
      <trkpt lat="48.47039" lon="-2.52267">
        <ele>53.693359375</ele>
        <time>2021-05-10T08:50:05Z</time>
      </trkpt>
      <trkpt lat="48.47037" lon="-2.52279">
        <ele>51.480041503906</ele>
        <time>2021-05-10T08:50:12Z</time>
      </trkpt>
      <trkpt lat="48.47034" lon="-2.52292">
        <ele>47.731079101562</ele>
        <time>2021-05-10T08:50:23Z</time>
      </trkpt>
      <trkpt lat="48.47032" lon="-2.52303">
        <ele>50.764770507812</ele>
        <time>2021-05-10T08:50:32Z</time>
      </trkpt>
      <trkpt lat="48.47029" lon="-2.52315">
        <ele>47.999328613281</ele>
        <time>2021-05-10T08:51:11Z</time>
      </trkpt>
      <trkpt lat="48.47026" lon="-2.52326">
        <ele>48.614868164062</ele>
        <time>2021-05-10T08:51:16Z</time>
      </trkpt>
      <trkpt lat="48.47017" lon="-2.52318">
        <ele>43.8</ele>
        <time>2021-05-10T08:51:24Z</time>
      </trkpt>
      <trkpt lat="48.47011" lon="-2.52314">
        <ele>43.9</ele>
        <time>2021-05-10T08:51:29Z</time>
      </trkpt>
      <trkpt lat="48.47004" lon="-2.52313">
        <ele>44</ele>
        <time>2021-05-10T08:51:35Z</time>
      </trkpt>
      <trkpt lat="48.46997" lon="-2.5231">
        <ele>44</ele>
        <time>2021-05-10T08:51:40Z</time>
      </trkpt>
      <trkpt lat="48.46991" lon="-2.52308">
        <ele>43.9</ele>
        <time>2021-05-10T08:51:45Z</time>
      </trkpt>
      <trkpt lat="48.46985" lon="-2.52307">
        <ele>43.9</ele>
        <time>2021-05-10T08:51:51Z</time>
      </trkpt>
      <trkpt lat="48.46978" lon="-2.52304">
        <ele>43.8</ele>
        <time>2021-05-10T08:51:56Z</time>
      </trkpt>
      <trkpt lat="48.46966" lon="-2.523">
        <ele>43.8</ele>
        <time>2021-05-10T08:52:05Z</time>
      </trkpt>
      <trkpt lat="48.46961" lon="-2.52301">
        <ele>43.7</ele>
        <time>2021-05-10T08:52:11Z</time>
      </trkpt>
      <trkpt lat="48.46953" lon="-2.52297">
        <ele>43.7</ele>
        <time>2021-05-10T08:52:17Z</time>
      </trkpt>
      <trkpt lat="48.46945" lon="-2.52294">
        <ele>43.7</ele>
        <time>2021-05-10T08:52:23Z</time>
      </trkpt>
      <trkpt lat="48.4694" lon="-2.52292">
        <ele>43.6</ele>
        <time>2021-05-10T08:52:28Z</time>
      </trkpt>
      <trkpt lat="48.46932" lon="-2.52291">
        <ele>43.6</ele>
        <time>2021-05-10T08:52:35Z</time>
      </trkpt>
      <trkpt lat="48.46927" lon="-2.52289">
        <ele>43.6</ele>
        <time>2021-05-10T08:52:43Z</time>
      </trkpt>
      <trkpt lat="48.46919" lon="-2.52286">
        <ele>43.6</ele>
        <time>2021-05-10T08:52:49Z</time>
      </trkpt>
      <trkpt lat="48.46911" lon="-2.52284">
        <ele>43.6</ele>
        <time>2021-05-10T08:52:56Z</time>
      </trkpt>
      <trkpt lat="48.46905" lon="-2.5228">
        <ele>43.6</ele>
        <time>2021-05-10T08:53:02Z</time>
      </trkpt>
      <trkpt lat="48.46897" lon="-2.52277">
        <ele>43.7</ele>
        <time>2021-05-10T08:53:12Z</time>
      </trkpt>
      <trkpt lat="48.46889" lon="-2.52274">
        <ele>43.7</ele>
        <time>2021-05-10T08:53:19Z</time>
      </trkpt>
      <trkpt lat="48.4688" lon="-2.52269">
        <ele>43.8</ele>
        <time>2021-05-10T08:53:25Z</time>
      </trkpt>
      <trkpt lat="48.46875" lon="-2.52268">
        <ele>43.8</ele>
        <time>2021-05-10T08:53:39Z</time>
      </trkpt>
      <trkpt lat="48.46869" lon="-2.52265">
        <ele>43.8</ele>
        <time>2021-05-10T08:53:44Z</time>
      </trkpt>
      <trkpt lat="48.46862" lon="-2.52263">
        <ele>43.8</ele>
      </trkpt>
      <trkpt lat="48.46848" lon="-2.52264">
        <ele>43.8</ele>
        <time>2021-05-10T08:54:02Z</time>
      </trkpt>
      <trkpt lat="48.46837" lon="-2.5226">
        <ele>43.9</ele>
        <time>2021-05-10T08:54:09Z</time>
      </trkpt>
      <trkpt lat="48.46827" lon="-2.52258">
        <ele>44</ele>
        <time>2021-05-10T08:54:16Z</time>
      </trkpt>
      <trkpt lat="48.46818" lon="-2.52254">
        <ele>44.2</ele>
        <time>2021-05-10T08:54:30Z</time>
      </trkpt>
      <trkpt lat="48.46812" lon="-2.52251">
        <ele>44.2</ele>
        <time>2021-05-10T08:54:39Z</time>
      </trkpt>
      <trkpt lat="48.46808" lon="-2.52249">
        <ele>44.3</ele>
        <time>2021-05-10T08:54:47Z</time>
      </trkpt>
      <trkpt lat="48.46802" lon="-2.52247">
        <ele>44.4</ele>
        <time>2021-05-10T08:54:58Z</time>
      </trkpt>
      <trkpt lat="48.46797" lon="-2.52243">
        <ele>44.5</ele>
        <time>2021-05-10T08:55:09Z</time>
      </trkpt>
      <trkpt lat="48.46802" lon="-2.5223">
        <ele>44.5</ele>
        <time>2021-05-10T08:55:16Z</time>
      </trkpt>
      <trkpt lat="48.46804" lon="-2.52216">
        <ele>45.087951660156</ele>
        <time>2021-05-10T08:55:23Z</time>
      </trkpt>
      <trkpt lat="48.46806" lon="-2.52204">
        <ele>44.537963867188</ele>
        <time>2021-05-10T08:55:28Z</time>
      </trkpt>
      <trkpt lat="48.4681" lon="-2.52193">
        <ele>45.993469238281</ele>
        <time>2021-05-10T08:55:36Z</time>
      </trkpt>
      <trkpt lat="48.46811" lon="-2.52177">
        <ele>44.5</ele>
        <time>2021-05-10T08:55:43Z</time>
      </trkpt>
      <trkpt lat="48.46812" lon="-2.52163">
        <ele>44.6</ele>
        <time>2021-05-10T08:56:03Z</time>
      </trkpt>
      <trkpt lat="48.46815" lon="-2.52151">
        <ele>44.7</ele>
        <time>2021-05-10T08:56:11Z</time>
      </trkpt>
      <trkpt lat="48.46816" lon="-2.52139">
        <ele>44.9</ele>
        <time>2021-05-10T08:56:19Z</time>
      </trkpt>
      <trkpt lat="48.46818" lon="-2.52131">
        <ele>45.273315429688</ele>
        <time>2021-05-10T08:56:26Z</time>
      </trkpt>
      <trkpt lat="48.46821" lon="-2.5212">
        <ele>42.761352539062</ele>
        <time>2021-05-10T08:56:31Z</time>
      </trkpt>
      <trkpt lat="48.46824" lon="-2.52108">
        <ele>44.753723144531</ele>
        <time>2021-05-10T08:56:38Z</time>
      </trkpt>
      <trkpt lat="48.46826" lon="-2.52096">
        <ele>43.723449707031</ele>
        <time>2021-05-10T08:56:44Z</time>
      </trkpt>
      <trkpt lat="48.46827" lon="-2.52083">
        <ele>42.704956054688</ele>
        <time>2021-05-10T08:56:54Z</time>
      </trkpt>
      <trkpt lat="48.46832" lon="-2.52073">
        <ele>47.30029296875</ele>
        <time>2021-05-10T08:57:00Z</time>
      </trkpt>
      <trkpt lat="48.46833" lon="-2.5206">
        <ele>47.989318847656</ele>
        <time>2021-05-10T08:57:07Z</time>
      </trkpt>
      <trkpt lat="48.46832" lon="-2.52049">
        <ele>46.8</ele>
        <time>2021-05-10T08:57:17Z</time>
      </trkpt>
      <trkpt lat="48.46824" lon="-2.52042">
        <ele>46.9</ele>
        <time>2021-05-10T08:57:41Z</time>
      </trkpt>
      <trkpt lat="48.46824" lon="-2.52028">
        <ele>40.957275390625</ele>
        <time>2021-05-10T08:57:49Z</time>
      </trkpt>
      <trkpt lat="48.46826" lon="-2.52016">
        <ele>37.670227050781</ele>
        <time>2021-05-10T08:57:57Z</time>
      </trkpt>
      <trkpt lat="48.46828" lon="-2.52005">
        <ele>40.793640136719</ele>
        <time>2021-05-10T08:58:02Z</time>
      </trkpt>
      <trkpt lat="48.46832" lon="-2.51993">
        <ele>41.147216796875</ele>
        <time>2021-05-10T08:58:08Z</time>
      </trkpt>
      <trkpt lat="48.46836" lon="-2.51986">
        <ele>48.3</ele>
        <time>2021-05-10T08:58:14Z</time>
      </trkpt>
      <trkpt lat="48.46837" lon="-2.51973">
        <ele>48.7</ele>
        <time>2021-05-10T08:58:22Z</time>
      </trkpt>
      <trkpt lat="48.46843" lon="-2.51965">
        <ele>36.709045410156</ele>
        <time>2021-05-10T08:58:27Z</time>
      </trkpt>
      <trkpt lat="48.46845" lon="-2.5195">
        <ele>49.3</ele>
        <time>2021-05-10T08:58:33Z</time>
      </trkpt>
      <trkpt lat="48.46848" lon="-2.51941">
        <ele>40.821105957031</ele>
        <time>2021-05-10T08:58:43Z</time>
      </trkpt>
      <trkpt lat="48.46849" lon="-2.5193">
        <ele>49.8</ele>
        <time>2021-05-10T08:58:51Z</time>
      </trkpt>
      <trkpt lat="48.46837" lon="-2.51922">
        <ele>49.9</ele>
        <time>2021-05-10T08:58:57Z</time>
      </trkpt>
      <trkpt lat="48.46828" lon="-2.51919">
        <ele>49.8</ele>
        <time>2021-05-10T08:59:04Z</time>
      </trkpt>
      <trkpt lat="48.46822" lon="-2.51914">
        <ele>49.8</ele>
        <time>2021-05-10T08:59:08Z</time>
      </trkpt>
      <trkpt lat="48.46812" lon="-2.51911">
        <ele>47.880004882812</ele>
        <time>2021-05-10T08:59:13Z</time>
      </trkpt>
      <trkpt lat="48.46806" lon="-2.51903">
        <ele>48.498291015625</ele>
        <time>2021-05-10T08:59:19Z</time>
      </trkpt>
      <trkpt lat="48.46798" lon="-2.51897">
        <ele>49.451599121094</ele>
        <time>2021-05-10T08:59:27Z</time>
      </trkpt>
      <trkpt lat="48.46791" lon="-2.51892">
        <ele>51.217712402344</ele>
        <time>2021-05-10T08:59:33Z</time>
      </trkpt>
      <trkpt lat="48.46784" lon="-2.51884">
        <ele>49.406555175781</ele>
        <time>2021-05-10T08:59:40Z</time>
      </trkpt>
      <trkpt lat="48.46777" lon="-2.51876">
        <ele>50.119323730469</ele>
        <time>2021-05-10T08:59:47Z</time>
      </trkpt>
      <trkpt lat="48.46771" lon="-2.51861">
        <ele>49.5</ele>
        <time>2021-05-10T08:59:56Z</time>
      </trkpt>
      <trkpt lat="48.46767" lon="-2.51855">
        <ele>49.5</ele>
        <time>2021-05-10T09:00:01Z</time>
      </trkpt>
      <trkpt lat="48.46764" lon="-2.51847">
        <ele>49.4</ele>
        <time>2021-05-10T09:00:07Z</time>
      </trkpt>
      <trkpt lat="48.46762" lon="-2.5184">
        <ele>49.5</ele>
        <time>2021-05-10T09:00:12Z</time>
      </trkpt>
      <trkpt lat="48.46758" lon="-2.51832">
        <ele>49.4</ele>
        <time>2021-05-10T09:00:17Z</time>
      </trkpt>
      <trkpt lat="48.46753" lon="-2.51824">
        <ele>52.5</ele>
        <time>2021-05-10T09:00:24Z</time>
      </trkpt>
      <trkpt lat="48.46744" lon="-2.51824">
        <ele>49.230834960938</ele>
        <time>2021-05-10T09:00:33Z</time>
      </trkpt>
      <trkpt lat="48.4674" lon="-2.51836">
        <ele>46.9609375</ele>
        <time>2021-05-10T09:00:41Z</time>
      </trkpt>
      <trkpt lat="48.46737" lon="-2.51848">
        <ele>45.402038574219</ele>
        <time>2021-05-10T09:00:48Z</time>
      </trkpt>
      <trkpt lat="48.46731" lon="-2.51855">
        <ele>41.320190429688</ele>
        <time>2021-05-10T09:00:58Z</time>
      </trkpt>
      <trkpt lat="48.46731" lon="-2.51869">
        <ele>40.917602539062</ele>
        <time>2021-05-10T09:01:03Z</time>
      </trkpt>
      <trkpt lat="48.4673" lon="-2.51881">
        <ele>39.786376953125</ele>
        <time>2021-05-10T09:01:08Z</time>
      </trkpt>
      <trkpt lat="48.46727" lon="-2.51893">
        <ele>43.03857421875</ele>
        <time>2021-05-10T09:01:14Z</time>
      </trkpt>
      <trkpt lat="48.46723" lon="-2.51901">
        <ele>47.1</ele>
        <time>2021-05-10T09:01:30Z</time>
      </trkpt>
      <trkpt lat="48.46719" lon="-2.51913">
        <ele>46.9</ele>
        <time>2021-05-10T09:01:39Z</time>
      </trkpt>
      <trkpt lat="48.46717" lon="-2.51925">
        <ele>46.6</ele>
      </trkpt>
      <trkpt lat="48.4671" lon="-2.51919">
        <ele>45.056396484375</ele>
        <time>2021-05-10T09:01:46Z</time>
      </trkpt>
      <trkpt lat="48.46703" lon="-2.51913">
        <ele>48.30517578125</ele>
        <time>2021-05-10T09:01:52Z</time>
      </trkpt>
      <trkpt lat="48.46699" lon="-2.51903">
        <ele>51.263549804688</ele>
        <time>2021-05-10T09:01:58Z</time>
      </trkpt>
      <trkpt lat="48.46699" lon="-2.51891">
        <ele>50.971435546875</ele>
        <time>2021-05-10T09:02:05Z</time>
      </trkpt>
      <trkpt lat="48.46691" lon="-2.51893">
        <ele>52.54443359375</ele>
        <time>2021-05-10T09:02:36Z</time>
      </trkpt>
      <trkpt lat="48.46683" lon="-2.51895">
        <ele>51.483337402344</ele>
        <time>2021-05-10T09:02:41Z</time>
      </trkpt>
      <trkpt lat="48.46675" lon="-2.51896">
        <ele>53.264343261719</ele>
        <time>2021-05-10T09:02:47Z</time>
      </trkpt>
      <trkpt lat="48.46667" lon="-2.51896">
        <ele>53.3203125</ele>
        <time>2021-05-10T09:02:55Z</time>
      </trkpt>
      <trkpt lat="48.46659" lon="-2.51901">
        <ele>50.440734863281</ele>
        <time>2021-05-10T09:03:08Z</time>
      </trkpt>
      <trkpt lat="48.4665" lon="-2.51902">
        <ele>52.305908203125</ele>
        <time>2021-05-10T09:03:15Z</time>
      </trkpt>
      <trkpt lat="48.46642" lon="-2.51907">
        <ele>51.410217285156</ele>
        <time>2021-05-10T09:03:21Z</time>
      </trkpt>
      <trkpt lat="48.46634" lon="-2.51913">
        <ele>50.548217773438</ele>
        <time>2021-05-10T09:03:30Z</time>
      </trkpt>
      <trkpt lat="48.46628" lon="-2.51919">
        <ele>45.907958984375</ele>
        <time>2021-05-10T09:03:39Z</time>
      </trkpt>
      <trkpt lat="48.46621" lon="-2.51923">
        <ele>47.843627929688</ele>
        <time>2021-05-10T09:03:44Z</time>
      </trkpt>
      <trkpt lat="48.46614" lon="-2.5193">
        <ele>48.557250976562</ele>
        <time>2021-05-10T09:03:51Z</time>
      </trkpt>
      <trkpt lat="48.46605" lon="-2.51933">
        <ele>48.941711425781</ele>
        <time>2021-05-10T09:03:55Z</time>
      </trkpt>
      <trkpt lat="48.46597" lon="-2.51934">
        <ele>46.770874023438</ele>
        <time>2021-05-10T09:04:00Z</time>
      </trkpt>
      <trkpt lat="48.4659" lon="-2.51933">
        <ele>49.948608398438</ele>
        <time>2021-05-10T09:04:07Z</time>
      </trkpt>
      <trkpt lat="48.46583" lon="-2.51923">
        <ele>48.053161621094</ele>
        <time>2021-05-10T09:04:30Z</time>
      </trkpt>
      <trkpt lat="48.46584" lon="-2.51911">
        <ele>47.665100097656</ele>
        <time>2021-05-10T09:04:35Z</time>
      </trkpt>
      <trkpt lat="48.46585" lon="-2.51899">
        <ele>47.541687011719</ele>
        <time>2021-05-10T09:04:43Z</time>
      </trkpt>
      <trkpt lat="48.46586" lon="-2.51885">
        <ele>47.682739257812</ele>
        <time>2021-05-10T09:04:52Z</time>
      </trkpt>
      <trkpt lat="48.46585" lon="-2.51872">
        <ele>49.489990234375</ele>
        <time>2021-05-10T09:04:58Z</time>
      </trkpt>
      <trkpt lat="48.46586" lon="-2.5186">
        <ele>49.591369628906</ele>
        <time>2021-05-10T09:05:05Z</time>
      </trkpt>
      <trkpt lat="48.46586" lon="-2.51848">
        <ele>48.557678222656</ele>
        <time>2021-05-10T09:05:11Z</time>
      </trkpt>
      <trkpt lat="48.46585" lon="-2.51835">
        <ele>45.111999511719</ele>
        <time>2021-05-10T09:05:21Z</time>
      </trkpt>
      <trkpt lat="48.46585" lon="-2.51822">
        <ele>43.45458984375</ele>
        <time>2021-05-10T09:05:27Z</time>
      </trkpt>
      <trkpt lat="48.46585" lon="-2.51811">
        <ele>45.758422851562</ele>
        <time>2021-05-10T09:05:32Z</time>
      </trkpt>
      <trkpt lat="48.46587" lon="-2.51798">
        <ele>47.549499511719</ele>
        <time>2021-05-10T09:05:37Z</time>
      </trkpt>
      <trkpt lat="48.46582" lon="-2.51788">
        <ele>45.885620117188</ele>
        <time>2021-05-10T09:05:45Z</time>
      </trkpt>
      <trkpt lat="48.46575" lon="-2.51779">
        <ele>49.5380859375</ele>
        <time>2021-05-10T09:05:51Z</time>
      </trkpt>
      <trkpt lat="48.46568" lon="-2.51785">
        <ele>50.234252929688</ele>
        <time>2021-05-10T09:06:00Z</time>
      </trkpt>
      <trkpt lat="48.46561" lon="-2.51791">
        <ele>51.62548828125</ele>
        <time>2021-05-10T09:06:05Z</time>
      </trkpt>
      <trkpt lat="48.46554" lon="-2.51798">
        <ele>53.872985839844</ele>
        <time>2021-05-10T09:06:11Z</time>
      </trkpt>
      <trkpt lat="48.46546" lon="-2.51802">
        <ele>54.360412597656</ele>
        <time>2021-05-10T09:06:17Z</time>
      </trkpt>
      <trkpt lat="48.4654" lon="-2.51809">
        <ele>56.152282714844</ele>
        <time>2021-05-10T09:06:24Z</time>
      </trkpt>
      <trkpt lat="48.46536" lon="-2.5182">
        <ele>58.734680175781</ele>
        <time>2021-05-10T09:06:29Z</time>
      </trkpt>
      <trkpt lat="48.4653" lon="-2.51829">
        <ele>60.033874511719</ele>
        <time>2021-05-10T09:06:37Z</time>
      </trkpt>
      <trkpt lat="48.46523" lon="-2.51834">
        <ele>58.320251464844</ele>
        <time>2021-05-10T09:06:43Z</time>
      </trkpt>
      <trkpt lat="48.46522" lon="-2.51846">
        <ele>51.84228515625</ele>
        <time>2021-05-10T09:06:48Z</time>
      </trkpt>
      <trkpt lat="48.46517" lon="-2.51857">
        <ele>49.076171875</ele>
        <time>2021-05-10T09:06:56Z</time>
      </trkpt>
      <trkpt lat="48.46509" lon="-2.51862">
        <ele>49.135498046875</ele>
        <time>2021-05-10T09:07:01Z</time>
      </trkpt>
      <trkpt lat="48.46504" lon="-2.51872">
        <ele>43.461791992188</ele>
        <time>2021-05-10T09:07:06Z</time>
      </trkpt>
      <trkpt lat="48.46499" lon="-2.51881">
        <ele>46.32958984375</ele>
        <time>2021-05-10T09:07:12Z</time>
      </trkpt>
      <trkpt lat="48.46494" lon="-2.51891">
        <ele>49.090270996094</ele>
        <time>2021-05-10T09:07:21Z</time>
      </trkpt>
      <trkpt lat="48.46488" lon="-2.51901">
        <ele>49.081359863281</ele>
        <time>2021-05-10T09:07:29Z</time>
      </trkpt>
      <trkpt lat="48.46484" lon="-2.51912">
        <ele>48.132690429688</ele>
        <time>2021-05-10T09:07:35Z</time>
      </trkpt>
      <trkpt lat="48.46478" lon="-2.5192">
        <ele>52.13671875</ele>
        <time>2021-05-10T09:07:41Z</time>
      </trkpt>
      <trkpt lat="48.46476" lon="-2.51933">
        <ele>50.509887695312</ele>
        <time>2021-05-10T09:07:47Z</time>
      </trkpt>
      <trkpt lat="48.4647" lon="-2.51942">
        <ele>52.064636230469</ele>
        <time>2021-05-10T09:07:52Z</time>
      </trkpt>
      <trkpt lat="48.46463" lon="-2.51954">
        <ele>52.7</ele>
        <time>2021-05-10T09:08:00Z</time>
      </trkpt>
      <trkpt lat="48.46461" lon="-2.51965">
        <ele>53.2</ele>
        <time>2021-05-10T09:08:08Z</time>
      </trkpt>
      <trkpt lat="48.46458" lon="-2.51974">
        <ele>53.6</ele>
        <time>2021-05-10T09:08:13Z</time>
      </trkpt>
      <trkpt lat="48.46458" lon="-2.51984">
        <ele>50.902038574219</ele>
        <time>2021-05-10T09:08:19Z</time>
      </trkpt>
      <trkpt lat="48.46456" lon="-2.51997">
        <ele>44.95556640625</ele>
        <time>2021-05-10T09:08:26Z</time>
      </trkpt>
      <trkpt lat="48.46452" lon="-2.5201">
        <ele>55.3</ele>
        <time>2021-05-10T09:08:32Z</time>
      </trkpt>
      <trkpt lat="48.46452" lon="-2.52021">
        <ele>55.9</ele>
        <time>2021-05-10T09:08:37Z</time>
      </trkpt>
      <trkpt lat="48.4645" lon="-2.5203">
        <ele>56.4</ele>
        <time>2021-05-10T09:08:44Z</time>
      </trkpt>
      <trkpt lat="48.46449" lon="-2.52041">
        <ele>57.1</ele>
        <time>2021-05-10T09:08:49Z</time>
      </trkpt>
      <trkpt lat="48.46447" lon="-2.52052">
        <ele>57.8</ele>
        <time>2021-05-10T09:08:56Z</time>
      </trkpt>
      <trkpt lat="48.46446" lon="-2.5206">
        <ele>58.2</ele>
        <time>2021-05-10T09:09:02Z</time>
      </trkpt>
      <trkpt lat="48.46445" lon="-2.52069">
        <ele>58.8</ele>
        <time>2021-05-10T09:09:09Z</time>
      </trkpt>
      <trkpt lat="48.46442" lon="-2.52082">
        <ele>59.7</ele>
        <time>2021-05-10T09:09:19Z</time>
      </trkpt>
      <trkpt lat="48.46439" lon="-2.52096">
        <ele>60.7</ele>
        <time>2021-05-10T09:09:25Z</time>
      </trkpt>
      <trkpt lat="48.46437" lon="-2.52108">
        <ele>61.5</ele>
        <time>2021-05-10T09:09:32Z</time>
      </trkpt>
      <trkpt lat="48.46435" lon="-2.52119">
        <ele>62.2</ele>
        <time>2021-05-10T09:09:38Z</time>
      </trkpt>
      <trkpt lat="48.46431" lon="-2.52134">
        <ele>63.1</ele>
        <time>2021-05-10T09:09:44Z</time>
      </trkpt>
      <trkpt lat="48.46431" lon="-2.52146">
        <ele>63.8</ele>
        <time>2021-05-10T09:09:50Z</time>
      </trkpt>
      <trkpt lat="48.46429" lon="-2.52157">
        <ele>64.4</ele>
        <time>2021-05-10T09:09:58Z</time>
      </trkpt>
      <trkpt lat="48.4643" lon="-2.52166">
        <ele>64.9</ele>
        <time>2021-05-10T09:10:03Z</time>
      </trkpt>
      <trkpt lat="48.46428" lon="-2.52179">
        <ele>65.7</ele>
        <time>2021-05-10T09:10:10Z</time>
      </trkpt>
      <trkpt lat="48.46427" lon="-2.52192">
        <ele>66.4</ele>
        <time>2021-05-10T09:10:17Z</time>
      </trkpt>
      <trkpt lat="48.46429" lon="-2.52204">
        <ele>67.1</ele>
        <time>2021-05-10T09:10:25Z</time>
      </trkpt>
      <trkpt lat="48.46428" lon="-2.52216">
        <ele>67.8</ele>
        <time>2021-05-10T09:10:33Z</time>
      </trkpt>
      <trkpt lat="48.46427" lon="-2.52226">
        <ele>68.4</ele>
        <time>2021-05-10T09:10:39Z</time>
      </trkpt>
      <trkpt lat="48.46429" lon="-2.5224">
        <ele>69.1</ele>
        <time>2021-05-10T09:10:46Z</time>
      </trkpt>
      <trkpt lat="48.46429" lon="-2.52252">
        <ele>69.8</ele>
        <time>2021-05-10T09:10:53Z</time>
      </trkpt>
      <trkpt lat="48.4643" lon="-2.52264">
        <ele>68.3017578125</ele>
        <time>2021-05-10T09:10:57Z</time>
      </trkpt>
      <trkpt lat="48.4643" lon="-2.52274">
        <ele>70.5</ele>
        <time>2021-05-10T09:11:02Z</time>
      </trkpt>
      <trkpt lat="48.46428" lon="-2.5229">
        <ele>71.2</ele>
        <time>2021-05-10T09:11:09Z</time>
      </trkpt>
      <trkpt lat="48.4643" lon="-2.52302">
        <ele>71.5</ele>
        <time>2021-05-10T09:11:16Z</time>
      </trkpt>
      <trkpt lat="48.46427" lon="-2.52312">
        <ele>72.1</ele>
        <time>2021-05-10T09:11:24Z</time>
      </trkpt>
      <trkpt lat="48.46428" lon="-2.52323">
        <ele>72.4</ele>
        <time>2021-05-10T09:11:30Z</time>
      </trkpt>
      <trkpt lat="48.46429" lon="-2.52335">
        <ele>72.7</ele>
        <time>2021-05-10T09:11:35Z</time>
      </trkpt>
      <trkpt lat="48.46429" lon="-2.52346">
        <ele>73.3</ele>
        <time>2021-05-10T09:11:40Z</time>
      </trkpt>
      <trkpt lat="48.46431" lon="-2.52359">
        <ele>78.536010742188</ele>
        <time>2021-05-10T09:11:46Z</time>
      </trkpt>
      <trkpt lat="48.46425" lon="-2.52368">
        <ele>76.360656738281</ele>
        <time>2021-05-10T09:11:53Z</time>
      </trkpt>
      <trkpt lat="48.46417" lon="-2.52372">
        <ele>80.962036132812</ele>
        <time>2021-05-10T09:13:31Z</time>
      </trkpt>
      <trkpt lat="48.4641" lon="-2.52378">
        <ele>81.397827148438</ele>
        <time>2021-05-10T09:13:40Z</time>
      </trkpt>
      <trkpt lat="48.46403" lon="-2.52386">
        <ele>83.540954589844</ele>
        <time>2021-05-10T09:13:50Z</time>
      </trkpt>
      <trkpt lat="48.46402" lon="-2.52399">
        <ele>80.286987304688</ele>
        <time>2021-05-10T09:14:00Z</time>
      </trkpt>
      <trkpt lat="48.46404" lon="-2.52411">
        <ele>83.521484375</ele>
        <time>2021-05-10T09:14:07Z</time>
      </trkpt>
      <trkpt lat="48.46398" lon="-2.52421">
        <ele>79.6</ele>
        <time>2021-05-10T09:14:36Z</time>
      </trkpt>
      <trkpt lat="48.46388" lon="-2.52417">
        <ele>80</ele>
      </trkpt>
      <trkpt lat="48.46389" lon="-2.52405">
        <ele>86.215148925781</ele>
        <time>2021-05-10T09:14:41Z</time>
      </trkpt>
      <trkpt lat="48.46381" lon="-2.52408">
        <ele>85.150512695312</ele>
        <time>2021-05-10T09:14:49Z</time>
      </trkpt>
      <trkpt lat="48.46375" lon="-2.52417">
        <ele>84.535278320312</ele>
        <time>2021-05-10T09:15:38Z</time>
      </trkpt>
      <trkpt lat="48.46362" lon="-2.52423">
        <ele>80.9</ele>
        <time>2021-05-10T09:16:04Z</time>
      </trkpt>
      <trkpt lat="48.46359" lon="-2.52411">
        <ele>80.7</ele>
        <time>2021-05-10T09:16:37Z</time>
      </trkpt>
      <trkpt lat="48.46356" lon="-2.52398">
        <ele>79.7</ele>
        <time>2021-05-10T09:16:47Z</time>
      </trkpt>
      <trkpt lat="48.46357" lon="-2.52386">
        <ele>78.8</ele>
        <time>2021-05-10T09:16:53Z</time>
      </trkpt>
      <trkpt lat="48.46353" lon="-2.52375">
        <ele>78</ele>
        <time>2021-05-10T09:16:59Z</time>
      </trkpt>
      <trkpt lat="48.46358" lon="-2.52363">
        <ele>78.133483886719</ele>
        <time>2021-05-10T09:17:06Z</time>
      </trkpt>
      <trkpt lat="48.46351" lon="-2.52356">
        <ele>77.684509277344</ele>
        <time>2021-05-10T09:17:12Z</time>
      </trkpt>
      <trkpt lat="48.46345" lon="-2.52348">
        <ele>76.951782226562</ele>
        <time>2021-05-10T09:17:19Z</time>
      </trkpt>
      <trkpt lat="48.46339" lon="-2.5234">
        <ele>76.100708007812</ele>
        <time>2021-05-10T09:17:26Z</time>
      </trkpt>
      <trkpt lat="48.4633" lon="-2.52337">
        <ele>75.172424316406</ele>
        <time>2021-05-10T09:17:34Z</time>
      </trkpt>
      <trkpt lat="48.46322" lon="-2.52334">
        <ele>73.992004394531</ele>
        <time>2021-05-10T09:17:41Z</time>
      </trkpt>
      <trkpt lat="48.46313" lon="-2.52334">
        <ele>76.805114746094</ele>
        <time>2021-05-10T09:17:52Z</time>
      </trkpt>
      <trkpt lat="48.46304" lon="-2.52325">
        <ele>73.8</ele>
        <time>2021-05-10T09:18:00Z</time>
      </trkpt>
      <trkpt lat="48.46296" lon="-2.52329">
        <ele>73.8</ele>
        <time>2021-05-10T09:18:05Z</time>
      </trkpt>
      <trkpt lat="48.46289" lon="-2.52338">
        <ele>74.544677734375</ele>
        <time>2021-05-10T09:18:12Z</time>
      </trkpt>
      <trkpt lat="48.46278" lon="-2.52347">
        <ele>74.6</ele>
        <time>2021-05-10T09:18:18Z</time>
      </trkpt>
      <trkpt lat="48.46271" lon="-2.52354">
        <ele>74.9</ele>
        <time>2021-05-10T09:18:24Z</time>
      </trkpt>
      <trkpt lat="48.46266" lon="-2.52348">
        <ele>74.3</ele>
      </trkpt>
      <trkpt lat="48.46261" lon="-2.52343">
        <ele>73.9</ele>
        <time>2021-05-10T09:18:31Z</time>
      </trkpt>
      <trkpt lat="48.46255" lon="-2.5234">
        <ele>73.5</ele>
        <time>2021-05-10T09:18:50Z</time>
      </trkpt>
      <trkpt lat="48.46248" lon="-2.52337">
        <ele>70.696838378906</ele>
        <time>2021-05-10T09:19:08Z</time>
      </trkpt>
      <trkpt lat="48.46241" lon="-2.52341">
        <ele>67.029602050781</ele>
        <time>2021-05-10T09:19:13Z</time>
      </trkpt>
      <trkpt lat="48.46233" lon="-2.52347">
        <ele>68.072631835938</ele>
        <time>2021-05-10T09:19:20Z</time>
      </trkpt>
      <trkpt lat="48.46227" lon="-2.52356">
        <ele>70.382385253906</ele>
        <time>2021-05-10T09:19:29Z</time>
      </trkpt>
      <trkpt lat="48.46221" lon="-2.52365">
        <ele>71.008850097656</ele>
        <time>2021-05-10T09:19:38Z</time>
      </trkpt>
      <trkpt lat="48.46213" lon="-2.52365">
        <ele>71.9</ele>
        <time>2021-05-10T09:19:47Z</time>
      </trkpt>
      <trkpt lat="48.46205" lon="-2.52367">
        <ele>71.4</ele>
        <time>2021-05-10T09:19:53Z</time>
      </trkpt>
      <trkpt lat="48.46197" lon="-2.52364">
        <ele>70.669250488281</ele>
        <time>2021-05-10T09:20:01Z</time>
      </trkpt>
      <trkpt lat="48.46188" lon="-2.52369">
        <ele>70.362609863281</ele>
        <time>2021-05-10T09:20:06Z</time>
      </trkpt>
      <trkpt lat="48.46179" lon="-2.52372">
        <ele>69.810180664062</ele>
        <time>2021-05-10T09:20:12Z</time>
      </trkpt>
      <trkpt lat="48.46172" lon="-2.52374">
        <ele>68.468566894531</ele>
        <time>2021-05-10T09:20:18Z</time>
      </trkpt>
      <trkpt lat="48.46163" lon="-2.52378">
        <ele>68.380737304688</ele>
        <time>2021-05-10T09:20:26Z</time>
      </trkpt>
      <trkpt lat="48.46156" lon="-2.52383">
        <ele>65.955383300781</ele>
        <time>2021-05-10T09:20:31Z</time>
      </trkpt>
      <trkpt lat="48.46149" lon="-2.5239">
        <ele>64.125366210938</ele>
        <time>2021-05-10T09:20:39Z</time>
      </trkpt>
      <trkpt lat="48.46142" lon="-2.52397">
        <ele>63.763916015625</ele>
        <time>2021-05-10T09:20:44Z</time>
      </trkpt>
      <trkpt lat="48.46134" lon="-2.524">
        <ele>64.136352539062</ele>
        <time>2021-05-10T09:20:51Z</time>
      </trkpt>
      <trkpt lat="48.46127" lon="-2.52406">
        <ele>65.169494628906</ele>
        <time>2021-05-10T09:20:57Z</time>
      </trkpt>
      <trkpt lat="48.4612" lon="-2.52413">
        <ele>67.189208984375</ele>
        <time>2021-05-10T09:21:04Z</time>
      </trkpt>
      <trkpt lat="48.46113" lon="-2.52419">
        <ele>66.022216796875</ele>
        <time>2021-05-10T09:21:12Z</time>
      </trkpt>
      <trkpt lat="48.46107" lon="-2.52424">
        <ele>67.255798339844</ele>
        <time>2021-05-10T09:21:16Z</time>
      </trkpt>
      <trkpt lat="48.46099" lon="-2.52431">
        <ele>65.286254882812</ele>
        <time>2021-05-10T09:21:22Z</time>
      </trkpt>
      <trkpt lat="48.46093" lon="-2.5244">
        <ele>63.897155761719</ele>
        <time>2021-05-10T09:21:27Z</time>
      </trkpt>
      <trkpt lat="48.46087" lon="-2.5245">
        <ele>62.602478027344</ele>
        <time>2021-05-10T09:21:34Z</time>
      </trkpt>
      <trkpt lat="48.46083" lon="-2.52461">
        <ele>64.541076660156</ele>
        <time>2021-05-10T09:21:39Z</time>
      </trkpt>
      <trkpt lat="48.46077" lon="-2.5247">
        <ele>63.128784179688</ele>
        <time>2021-05-10T09:21:47Z</time>
      </trkpt>
      <trkpt lat="48.4607" lon="-2.52477">
        <ele>65.40869140625</ele>
        <time>2021-05-10T09:21:55Z</time>
      </trkpt>
      <trkpt lat="48.46065" lon="-2.52487">
        <ele>63.6044921875</ele>
        <time>2021-05-10T09:22:00Z</time>
      </trkpt>
      <trkpt lat="48.46064" lon="-2.52499">
        <ele>64.949523925781</ele>
        <time>2021-05-10T09:22:06Z</time>
      </trkpt>
      <trkpt lat="48.46059" lon="-2.5251">
        <ele>68.704772949219</ele>
        <time>2021-05-10T09:22:12Z</time>
      </trkpt>
      <trkpt lat="48.46054" lon="-2.52519">
        <ele>69.507690429688</ele>
        <time>2021-05-10T09:22:19Z</time>
      </trkpt>
      <trkpt lat="48.46048" lon="-2.52528">
        <ele>66.747863769531</ele>
        <time>2021-05-10T09:22:24Z</time>
      </trkpt>
      <trkpt lat="48.46036" lon="-2.52542">
        <ele>64</ele>
        <time>2021-05-10T09:22:34Z</time>
      </trkpt>
      <trkpt lat="48.46036" lon="-2.52524">
        <ele>63.3</ele>
        <time>2021-05-10T09:23:28Z</time>
      </trkpt>
      <trkpt lat="48.46037" lon="-2.52512">
        <ele>59.901123046875</ele>
        <time>2021-05-10T09:23:33Z</time>
      </trkpt>
      <trkpt lat="48.46039" lon="-2.525">
        <ele>64.634765625</ele>
        <time>2021-05-10T09:23:39Z</time>
      </trkpt>
      <trkpt lat="48.4604" lon="-2.52489">
        <ele>63.336181640625</ele>
        <time>2021-05-10T09:23:44Z</time>
      </trkpt>
      <trkpt lat="48.46043" lon="-2.52477">
        <ele>61.518493652344</ele>
        <time>2021-05-10T09:23:50Z</time>
      </trkpt>
      <trkpt lat="48.46044" lon="-2.52463">
        <ele>62</ele>
        <time>2021-05-10T09:24:01Z</time>
      </trkpt>
      <trkpt lat="48.46048" lon="-2.52446">
        <ele>61.8</ele>
        <time>2021-05-10T09:24:06Z</time>
      </trkpt>
      <trkpt lat="48.4605" lon="-2.52433">
        <ele>61.5</ele>
        <time>2021-05-10T09:24:15Z</time>
      </trkpt>
      <trkpt lat="48.46055" lon="-2.52425">
        <ele>59.024719238281</ele>
        <time>2021-05-10T09:24:23Z</time>
      </trkpt>
      <trkpt lat="48.46057" lon="-2.52416">
        <ele>60.537902832031</ele>
        <time>2021-05-10T09:24:27Z</time>
      </trkpt>
      <trkpt lat="48.4606" lon="-2.52403">
        <ele>61.323852539062</ele>
        <time>2021-05-10T09:24:31Z</time>
      </trkpt>
      <trkpt lat="48.46063" lon="-2.52392">
        <ele>61.576416015625</ele>
        <time>2021-05-10T09:24:37Z</time>
      </trkpt>
      <trkpt lat="48.46064" lon="-2.52379">
        <ele>63.687683105469</ele>
        <time>2021-05-10T09:24:41Z</time>
      </trkpt>
      <trkpt lat="48.46068" lon="-2.52368">
        <ele>65.521179199219</ele>
        <time>2021-05-10T09:24:49Z</time>
      </trkpt>
      <trkpt lat="48.46069" lon="-2.52354">
        <ele>66.320983886719</ele>
        <time>2021-05-10T09:24:55Z</time>
      </trkpt>
      <trkpt lat="48.46072" lon="-2.52342">
        <ele>62.791015625</ele>
        <time>2021-05-10T09:25:04Z</time>
      </trkpt>
      <trkpt lat="48.46072" lon="-2.5233">
        <ele>61.802795410156</ele>
        <time>2021-05-10T09:25:10Z</time>
      </trkpt>
      <trkpt lat="48.46073" lon="-2.52317">
        <ele>60.807250976562</ele>
        <time>2021-05-10T09:25:17Z</time>
      </trkpt>
      <trkpt lat="48.46073" lon="-2.52304">
        <ele>61.6943359375</ele>
        <time>2021-05-10T09:25:24Z</time>
      </trkpt>
      <trkpt lat="48.46076" lon="-2.52294">
        <ele>62.80126953125</ele>
        <time>2021-05-10T09:25:31Z</time>
      </trkpt>
      <trkpt lat="48.46077" lon="-2.52283">
        <ele>61.243225097656</ele>
        <time>2021-05-10T09:25:36Z</time>
      </trkpt>
      <trkpt lat="48.46079" lon="-2.52271">
        <ele>59.473266601562</ele>
        <time>2021-05-10T09:25:46Z</time>
      </trkpt>
      <trkpt lat="48.46079" lon="-2.52258">
        <ele>58.380676269531</ele>
        <time>2021-05-10T09:25:53Z</time>
      </trkpt>
      <trkpt lat="48.4608" lon="-2.52245">
        <ele>57.121154785156</ele>
        <time>2021-05-10T09:26:00Z</time>
      </trkpt>
      <trkpt lat="48.46082" lon="-2.52232">
        <ele>57.352966308594</ele>
        <time>2021-05-10T09:26:07Z</time>
      </trkpt>
      <trkpt lat="48.46082" lon="-2.52221">
        <ele>54.732849121094</ele>
        <time>2021-05-10T09:26:12Z</time>
      </trkpt>
      <trkpt lat="48.46082" lon="-2.52208">
        <ele>57.866882324219</ele>
        <time>2021-05-10T09:26:20Z</time>
      </trkpt>
      <trkpt lat="48.46084" lon="-2.52195">
        <ele>58.509094238281</ele>
        <time>2021-05-10T09:26:26Z</time>
      </trkpt>
      <trkpt lat="48.46083" lon="-2.52182">
        <ele>57.044494628906</ele>
        <time>2021-05-10T09:26:33Z</time>
      </trkpt>
      <trkpt lat="48.46088" lon="-2.52171">
        <ele>56.016479492188</ele>
        <time>2021-05-10T09:26:43Z</time>
      </trkpt>
      <trkpt lat="48.46089" lon="-2.5216">
        <ele>54.023803710938</ele>
        <time>2021-05-10T09:26:47Z</time>
      </trkpt>
      <trkpt lat="48.46093" lon="-2.52148">
        <ele>54.236877441406</ele>
        <time>2021-05-10T09:26:54Z</time>
      </trkpt>
      <trkpt lat="48.46098" lon="-2.52138">
        <ele>53.380126953125</ele>
        <time>2021-05-10T09:27:00Z</time>
      </trkpt>
      <trkpt lat="48.46101" lon="-2.52126">
        <ele>51.412841796875</ele>
        <time>2021-05-10T09:27:07Z</time>
      </trkpt>
      <trkpt lat="48.46105" lon="-2.52116">
        <ele>54.591369628906</ele>
        <time>2021-05-10T09:27:13Z</time>
      </trkpt>
      <trkpt lat="48.46111" lon="-2.52105">
        <ele>52.764831542969</ele>
        <time>2021-05-10T09:27:19Z</time>
      </trkpt>
      <trkpt lat="48.46112" lon="-2.52093">
        <ele>50.609069824219</ele>
        <time>2021-05-10T09:27:28Z</time>
      </trkpt>
      <trkpt lat="48.46117" lon="-2.52082">
        <ele>49.464294433594</ele>
        <time>2021-05-10T09:27:35Z</time>
      </trkpt>
      <trkpt lat="48.46121" lon="-2.52071">
        <ele>51.592956542969</ele>
        <time>2021-05-10T09:27:40Z</time>
      </trkpt>
      <trkpt lat="48.46121" lon="-2.52054">
        <ele>49.7</ele>
        <time>2021-05-10T09:27:46Z</time>
      </trkpt>
      <trkpt lat="48.46128" lon="-2.52046">
        <ele>55.080505371094</ele>
        <time>2021-05-10T09:27:54Z</time>
      </trkpt>
      <trkpt lat="48.46136" lon="-2.52041">
        <ele>53.258361816406</ele>
        <time>2021-05-10T09:28:00Z</time>
      </trkpt>
      <trkpt lat="48.46144" lon="-2.52035">
        <ele>51.9619140625</ele>
        <time>2021-05-10T09:28:07Z</time>
      </trkpt>
      <trkpt lat="48.46151" lon="-2.52031">
        <ele>49.427307128906</ele>
        <time>2021-05-10T09:28:13Z</time>
      </trkpt>
      <trkpt lat="48.46159" lon="-2.52026">
        <ele>49.100646972656</ele>
        <time>2021-05-10T09:28:21Z</time>
      </trkpt>
      <trkpt lat="48.46166" lon="-2.52022">
        <ele>52.602478027344</ele>
        <time>2021-05-10T09:28:28Z</time>
      </trkpt>
      <trkpt lat="48.46175" lon="-2.52018">
        <ele>54.137512207031</ele>
        <time>2021-05-10T09:28:33Z</time>
      </trkpt>
      <trkpt lat="48.46184" lon="-2.5201">
        <ele>50.1</ele>
        <time>2021-05-10T09:28:38Z</time>
      </trkpt>
      <trkpt lat="48.46191" lon="-2.52007">
        <ele>50.4</ele>
        <time>2021-05-10T09:28:44Z</time>
      </trkpt>
      <trkpt lat="48.46198" lon="-2.52004">
        <ele>51.574829101562</ele>
        <time>2021-05-10T09:28:54Z</time>
      </trkpt>
      <trkpt lat="48.46206" lon="-2.51999">
        <ele>50.003051757812</ele>
        <time>2021-05-10T09:29:01Z</time>
      </trkpt>
      <trkpt lat="48.46213" lon="-2.51991">
        <ele>49.300537109375</ele>
        <time>2021-05-10T09:29:06Z</time>
      </trkpt>
      <trkpt lat="48.46222" lon="-2.51988">
        <ele>53.500732421875</ele>
        <time>2021-05-10T09:29:13Z</time>
      </trkpt>
      <trkpt lat="48.4623" lon="-2.51983">
        <ele>54.841979980469</ele>
        <time>2021-05-10T09:29:19Z</time>
      </trkpt>
      <trkpt lat="48.46237" lon="-2.51975">
        <ele>53.655029296875</ele>
        <time>2021-05-10T09:29:26Z</time>
      </trkpt>
      <trkpt lat="48.46245" lon="-2.51969">
        <ele>52.102172851562</ele>
        <time>2021-05-10T09:29:33Z</time>
      </trkpt>
      <trkpt lat="48.46252" lon="-2.51963">
        <ele>51.782104492188</ele>
        <time>2021-05-10T09:29:39Z</time>
      </trkpt>
      <trkpt lat="48.46259" lon="-2.51958">
        <ele>49.062622070312</ele>
        <time>2021-05-10T09:29:47Z</time>
      </trkpt>
      <trkpt lat="48.46266" lon="-2.51955">
        <ele>52.655090332031</ele>
        <time>2021-05-10T09:29:53Z</time>
      </trkpt>
      <trkpt lat="48.46274" lon="-2.5195">
        <ele>53.231323242188</ele>
        <time>2021-05-10T09:29:58Z</time>
      </trkpt>
      <trkpt lat="48.46281" lon="-2.51948">
        <ele>53.065002441406</ele>
        <time>2021-05-10T09:30:04Z</time>
      </trkpt>
      <trkpt lat="48.46289" lon="-2.51943">
        <ele>51.548217773438</ele>
        <time>2021-05-10T09:30:11Z</time>
      </trkpt>
      <trkpt lat="48.46297" lon="-2.51938">
        <ele>52.271240234375</ele>
        <time>2021-05-10T09:30:17Z</time>
      </trkpt>
      <trkpt lat="48.46305" lon="-2.51935">
        <ele>50.549072265625</ele>
        <time>2021-05-10T09:30:24Z</time>
      </trkpt>
      <trkpt lat="48.46313" lon="-2.51933">
        <ele>50.404235839844</ele>
        <time>2021-05-10T09:30:30Z</time>
      </trkpt>
      <trkpt lat="48.46322" lon="-2.51929">
        <ele>53.765991210938</ele>
        <time>2021-05-10T09:30:37Z</time>
      </trkpt>
      <trkpt lat="48.46329" lon="-2.51922">
        <ele>52.51220703125</ele>
        <time>2021-05-10T09:30:44Z</time>
      </trkpt>
      <trkpt lat="48.46337" lon="-2.51916">
        <ele>50.823974609375</ele>
        <time>2021-05-10T09:30:53Z</time>
      </trkpt>
      <trkpt lat="48.46345" lon="-2.51912">
        <ele>50.1</ele>
        <time>2021-05-10T09:30:59Z</time>
      </trkpt>
      <trkpt lat="48.46352" lon="-2.5191">
        <ele>50.2</ele>
        <time>2021-05-10T09:31:06Z</time>
      </trkpt>
      <trkpt lat="48.4636" lon="-2.51905">
        <ele>51.733947753906</ele>
        <time>2021-05-10T09:31:12Z</time>
      </trkpt>
      <trkpt lat="48.46368" lon="-2.51903">
        <ele>51.591430664062</ele>
        <time>2021-05-10T09:31:18Z</time>
      </trkpt>
      <trkpt lat="48.46376" lon="-2.51902">
        <ele>51.103271484375</ele>
        <time>2021-05-10T09:31:25Z</time>
      </trkpt>
      <trkpt lat="48.46385" lon="-2.51898">
        <ele>48.127319335938</ele>
        <time>2021-05-10T09:31:31Z</time>
      </trkpt>
      <trkpt lat="48.46393" lon="-2.51894">
        <ele>50.19091796875</ele>
        <time>2021-05-10T09:31:38Z</time>
      </trkpt>
      <trkpt lat="48.46401" lon="-2.51893">
        <ele>50.97021484375</ele>
        <time>2021-05-10T09:31:45Z</time>
      </trkpt>
      <trkpt lat="48.46409" lon="-2.51892">
        <ele>50.541564941406</ele>
        <time>2021-05-10T09:31:51Z</time>
      </trkpt>
      <trkpt lat="48.46417" lon="-2.51894">
        <ele>47.733337402344</ele>
        <time>2021-05-10T09:31:57Z</time>
      </trkpt>
      <trkpt lat="48.46426" lon="-2.5189">
        <ele>51</ele>
        <time>2021-05-10T09:32:02Z</time>
      </trkpt>
      <trkpt lat="48.46433" lon="-2.51898">
        <ele>51.2</ele>
        <time>2021-05-10T09:32:09Z</time>
      </trkpt>
      <trkpt lat="48.46439" lon="-2.51908">
        <ele>49.836242675781</ele>
        <time>2021-05-10T09:32:16Z</time>
      </trkpt>
      <trkpt lat="48.46445" lon="-2.51916">
        <ele>50.609069824219</ele>
        <time>2021-05-10T09:32:24Z</time>
      </trkpt>
      <trkpt lat="48.46447" lon="-2.51929">
        <ele>48.567199707031</ele>
        <time>2021-05-10T09:32:32Z</time>
      </trkpt>
      <trkpt lat="48.46453" lon="-2.51939">
        <ele>46.560852050781</ele>
        <time>2021-05-10T09:32:38Z</time>
      </trkpt>
      <trkpt lat="48.46458" lon="-2.51948">
        <ele>45.948608398438</ele>
        <time>2021-05-10T09:32:46Z</time>
      </trkpt>
      <trkpt lat="48.46467" lon="-2.51945">
        <ele>51.800476074219</ele>
        <time>2021-05-10T09:32:51Z</time>
      </trkpt>
      <trkpt lat="48.46474" lon="-2.51935">
        <ele>52.129577636719</ele>
        <time>2021-05-10T09:32:57Z</time>
      </trkpt>
      <trkpt lat="48.46477" lon="-2.51924">
        <ele>51.806335449219</ele>
        <time>2021-05-10T09:33:05Z</time>
      </trkpt>
      <trkpt lat="48.46484" lon="-2.51916">
        <ele>53.4228515625</ele>
        <time>2021-05-10T09:33:12Z</time>
      </trkpt>
      <trkpt lat="48.46489" lon="-2.51905">
        <ele>51.875915527344</ele>
        <time>2021-05-10T09:33:17Z</time>
      </trkpt>
      <trkpt lat="48.46492" lon="-2.51894">
        <ele>49.416870117188</ele>
        <time>2021-05-10T09:33:26Z</time>
      </trkpt>
      <trkpt lat="48.46497" lon="-2.51884">
        <ele>53.7353515625</ele>
        <time>2021-05-10T09:33:33Z</time>
      </trkpt>
      <trkpt lat="48.46504" lon="-2.51877">
        <ele>52.000122070312</ele>
        <time>2021-05-10T09:33:38Z</time>
      </trkpt>
      <trkpt lat="48.46507" lon="-2.51867">
        <ele>53.947021484375</ele>
        <time>2021-05-10T09:33:44Z</time>
      </trkpt>
      <trkpt lat="48.46514" lon="-2.51862">
        <ele>53.056030273438</ele>
        <time>2021-05-10T09:33:49Z</time>
      </trkpt>
      <trkpt lat="48.46522" lon="-2.51858">
        <ele>55.6689453125</ele>
        <time>2021-05-10T09:33:55Z</time>
      </trkpt>
      <trkpt lat="48.46526" lon="-2.51847">
        <ele>52.615112304688</ele>
        <time>2021-05-10T09:34:00Z</time>
      </trkpt>
      <trkpt lat="48.46527" lon="-2.51836">
        <ele>51.705932617188</ele>
        <time>2021-05-10T09:34:06Z</time>
      </trkpt>
      <trkpt lat="48.46531" lon="-2.51826">
        <ele>52.506042480469</ele>
        <time>2021-05-10T09:34:12Z</time>
      </trkpt>
      <trkpt lat="48.46539" lon="-2.51822">
        <ele>51.48876953125</ele>
        <time>2021-05-10T09:34:21Z</time>
      </trkpt>
      <trkpt lat="48.46543" lon="-2.51813">
        <ele>50.060852050781</ele>
        <time>2021-05-10T09:34:26Z</time>
      </trkpt>
      <trkpt lat="48.46548" lon="-2.51803">
        <ele>49.334533691406</ele>
        <time>2021-05-10T09:34:33Z</time>
      </trkpt>
      <trkpt lat="48.46555" lon="-2.51799">
        <ele>47.700317382812</ele>
        <time>2021-05-10T09:34:38Z</time>
      </trkpt>
      <trkpt lat="48.46561" lon="-2.5179">
        <ele>47.238098144531</ele>
        <time>2021-05-10T09:34:45Z</time>
      </trkpt>
      <trkpt lat="48.46569" lon="-2.51784">
        <ele>47.074279785156</ele>
        <time>2021-05-10T09:34:50Z</time>
      </trkpt>
      <trkpt lat="48.46577" lon="-2.51782">
        <ele>46.6533203125</ele>
        <time>2021-05-10T09:34:58Z</time>
      </trkpt>
      <trkpt lat="48.46583" lon="-2.51774">
        <ele>47.507995605469</ele>
        <time>2021-05-10T09:35:04Z</time>
      </trkpt>
      <trkpt lat="48.46584" lon="-2.51766">
        <ele>47.8</ele>
        <time>2021-05-10T09:35:09Z</time>
      </trkpt>
      <trkpt lat="48.46585" lon="-2.51757">
        <ele>47.9</ele>
        <time>2021-05-10T09:35:16Z</time>
      </trkpt>
      <trkpt lat="48.46587" lon="-2.51749">
        <ele>42.973876953125</ele>
        <time>2021-05-10T09:35:27Z</time>
      </trkpt>
      <trkpt lat="48.46588" lon="-2.51736">
        <ele>46.165161132812</ele>
        <time>2021-05-10T09:35:35Z</time>
      </trkpt>
      <trkpt lat="48.46588" lon="-2.5172">
        <ele>47.6</ele>
        <time>2021-05-10T09:35:41Z</time>
      </trkpt>
      <trkpt lat="48.46589" lon="-2.51706">
        <ele>47.4</ele>
        <time>2021-05-10T09:35:46Z</time>
      </trkpt>
      <trkpt lat="48.46588" lon="-2.51693">
        <ele>47.3</ele>
        <time>2021-05-10T09:35:50Z</time>
      </trkpt>
      <trkpt lat="48.4659" lon="-2.51678">
        <ele>47.1</ele>
        <time>2021-05-10T09:35:57Z</time>
      </trkpt>
      <trkpt lat="48.46592" lon="-2.51666">
        <ele>46.9</ele>
        <time>2021-05-10T09:36:04Z</time>
      </trkpt>
      <trkpt lat="48.46589" lon="-2.51653">
        <ele>47.1</ele>
        <time>2021-05-10T09:36:10Z</time>
      </trkpt>
      <trkpt lat="48.46593" lon="-2.51648">
        <ele>44.134155273438</ele>
        <time>2021-05-10T09:36:15Z</time>
      </trkpt>
      <trkpt lat="48.46591" lon="-2.51635">
        <ele>50.192138671875</ele>
        <time>2021-05-10T09:36:23Z</time>
      </trkpt>
      <trkpt lat="48.46591" lon="-2.5162">
        <ele>47.6</ele>
        <time>2021-05-10T09:36:29Z</time>
      </trkpt>
      <trkpt lat="48.46589" lon="-2.516">
        <ele>47.8</ele>
        <time>2021-05-10T09:36:37Z</time>
      </trkpt>
      <trkpt lat="48.46597" lon="-2.51589">
        <ele>48.1</ele>
        <time>2021-05-10T09:36:50Z</time>
      </trkpt>
      <trkpt lat="48.46605" lon="-2.51586">
        <ele>48.2</ele>
        <time>2021-05-10T09:36:55Z</time>
      </trkpt>
      <trkpt lat="48.4661" lon="-2.51584">
        <ele>48.3</ele>
        <time>2021-05-10T09:37:00Z</time>
      </trkpt>
      <trkpt lat="48.46616" lon="-2.51581">
        <ele>54.859252929688</ele>
        <time>2021-05-10T09:37:05Z</time>
      </trkpt>
      <trkpt lat="48.46625" lon="-2.5158">
        <ele>58.23779296875</ele>
        <time>2021-05-10T09:37:12Z</time>
      </trkpt>
      <trkpt lat="48.46634" lon="-2.51579">
        <ele>50.582702636719</ele>
        <time>2021-05-10T09:37:23Z</time>
      </trkpt>
      <trkpt lat="48.46642" lon="-2.51584">
        <ele>49.851684570312</ele>
        <time>2021-05-10T09:37:28Z</time>
      </trkpt>
      <trkpt lat="48.4665" lon="-2.51583">
        <ele>48.696655273438</ele>
        <time>2021-05-10T09:37:40Z</time>
      </trkpt>
      <trkpt lat="48.46657" lon="-2.51579">
        <ele>45.944702148438</ele>
        <time>2021-05-10T09:37:46Z</time>
      </trkpt>
      <trkpt lat="48.46667" lon="-2.51581">
        <ele>46.9853515625</ele>
        <time>2021-05-10T09:37:51Z</time>
      </trkpt>
      <trkpt lat="48.46675" lon="-2.51576">
        <ele>48.267700195312</ele>
        <time>2021-05-10T09:38:00Z</time>
      </trkpt>
      <trkpt lat="48.46682" lon="-2.51573">
        <ele>49.936462402344</ele>
        <time>2021-05-10T09:38:04Z</time>
      </trkpt>
      <trkpt lat="48.46689" lon="-2.51569">
        <ele>53.240905761719</ele>
        <time>2021-05-10T09:38:09Z</time>
      </trkpt>
      <trkpt lat="48.46696" lon="-2.51562">
        <ele>51.540832519531</ele>
        <time>2021-05-10T09:38:16Z</time>
      </trkpt>
      <trkpt lat="48.46703" lon="-2.51561">
        <ele>46.764831542969</ele>
        <time>2021-05-10T09:38:21Z</time>
      </trkpt>
      <trkpt lat="48.46711" lon="-2.51557">
        <ele>50.899658203125</ele>
        <time>2021-05-10T09:38:28Z</time>
      </trkpt>
      <trkpt lat="48.46719" lon="-2.51549">
        <ele>53.894165039062</ele>
        <time>2021-05-10T09:38:33Z</time>
      </trkpt>
      <trkpt lat="48.46727" lon="-2.51545">
        <ele>49.833740234375</ele>
        <time>2021-05-10T09:38:40Z</time>
      </trkpt>
      <trkpt lat="48.46731" lon="-2.51532">
        <ele>49.2</ele>
        <time>2021-05-10T09:38:49Z</time>
      </trkpt>
      <trkpt lat="48.46737" lon="-2.51531">
        <ele>50.113525390625</ele>
        <time>2021-05-10T09:38:54Z</time>
      </trkpt>
      <trkpt lat="48.46743" lon="-2.51521">
        <ele>49.687377929688</ele>
        <time>2021-05-10T09:39:01Z</time>
      </trkpt>
      <trkpt lat="48.46749" lon="-2.51513">
        <ele>54.6298828125</ele>
        <time>2021-05-10T09:39:11Z</time>
      </trkpt>
      <trkpt lat="48.46746" lon="-2.51525">
        <ele>51.268615722656</ele>
        <time>2021-05-10T09:39:35Z</time>
      </trkpt>
      <trkpt lat="48.46749" lon="-2.51536">
        <ele>50.57373046875</ele>
        <time>2021-05-10T09:39:42Z</time>
      </trkpt>
      <trkpt lat="48.46758" lon="-2.5154">
        <ele>52.514038085938</ele>
        <time>2021-05-10T09:40:16Z</time>
      </trkpt>
      <trkpt lat="48.4675" lon="-2.51535">
        <ele>49.910278320312</ele>
        <time>2021-05-10T09:40:46Z</time>
      </trkpt>
      <trkpt lat="48.46748" lon="-2.51524">
        <ele>48.757629394531</ele>
        <time>2021-05-10T09:40:52Z</time>
      </trkpt>
      <trkpt lat="48.4675" lon="-2.51514">
        <ele>50.09033203125</ele>
        <time>2021-05-10T09:40:56Z</time>
      </trkpt>
      <trkpt lat="48.46756" lon="-2.51505">
        <ele>49.881713867188</ele>
        <time>2021-05-10T09:41:01Z</time>
      </trkpt>
      <trkpt lat="48.46762" lon="-2.51495">
        <ele>52.892211914062</ele>
        <time>2021-05-10T09:41:08Z</time>
      </trkpt>
      <trkpt lat="48.46767" lon="-2.51483">
        <ele>49.6</ele>
        <time>2021-05-10T09:41:16Z</time>
      </trkpt>
      <trkpt lat="48.46771" lon="-2.51472">
        <ele>49.7</ele>
        <time>2021-05-10T09:41:24Z</time>
      </trkpt>
      <trkpt lat="48.46773" lon="-2.51465">
        <ele>49.7</ele>
      </trkpt>
      <trkpt lat="48.46778" lon="-2.51457">
        <ele>49.7</ele>
        <time>2021-05-10T09:41:34Z</time>
      </trkpt>
      <trkpt lat="48.46778" lon="-2.51447">
        <ele>49.6</ele>
        <time>2021-05-10T09:41:41Z</time>
      </trkpt>
      <trkpt lat="48.46784" lon="-2.51448">
        <ele>49.6</ele>
      </trkpt>
      <trkpt lat="48.46784" lon="-2.51444">
        <ele>45.112426757812</ele>
        <time>2021-05-10T09:41:49Z</time>
      </trkpt>
      <trkpt lat="48.4679" lon="-2.51433">
        <ele>49.3</ele>
        <time>2021-05-10T09:41:55Z</time>
      </trkpt>
      <trkpt lat="48.46795" lon="-2.51425">
        <ele>54.112854003906</ele>
        <time>2021-05-10T09:42:00Z</time>
      </trkpt>
      <trkpt lat="48.46797" lon="-2.51414">
        <ele>48.9</ele>
        <time>2021-05-10T09:42:16Z</time>
      </trkpt>
      <trkpt lat="48.46799" lon="-2.51401">
        <ele>48.8</ele>
        <time>2021-05-10T09:42:33Z</time>
      </trkpt>
      <trkpt lat="48.46802" lon="-2.51389">
        <ele>48.8</ele>
        <time>2021-05-10T09:42:42Z</time>
      </trkpt>
      <trkpt lat="48.46804" lon="-2.51383">
        <ele>54.723693847656</ele>
        <time>2021-05-10T09:42:50Z</time>
      </trkpt>
      <trkpt lat="48.46804" lon="-2.51369">
        <ele>48.7</ele>
        <time>2021-05-10T09:42:57Z</time>
      </trkpt>
      <trkpt lat="48.4681" lon="-2.51358">
        <ele>48.6</ele>
        <time>2021-05-10T09:43:04Z</time>
      </trkpt>
      <trkpt lat="48.46815" lon="-2.51343">
        <ele>48.4</ele>
        <time>2021-05-10T09:43:11Z</time>
      </trkpt>
      <trkpt lat="48.4682" lon="-2.51332">
        <ele>48.3</ele>
        <time>2021-05-10T09:43:17Z</time>
      </trkpt>
      <trkpt lat="48.46824" lon="-2.5132">
        <ele>48.4</ele>
        <time>2021-05-10T09:43:25Z</time>
      </trkpt>
      <trkpt lat="48.46827" lon="-2.51312">
        <ele>48.4</ele>
        <time>2021-05-10T09:43:33Z</time>
      </trkpt>
      <trkpt lat="48.46832" lon="-2.51302">
        <ele>48.4</ele>
        <time>2021-05-10T09:43:39Z</time>
      </trkpt>
      <trkpt lat="48.46837" lon="-2.51287">
        <ele>48.6</ele>
        <time>2021-05-10T09:43:46Z</time>
      </trkpt>
      <trkpt lat="48.4684" lon="-2.51279">
        <ele>48.7</ele>
        <time>2021-05-10T09:43:55Z</time>
      </trkpt>
      <trkpt lat="48.46843" lon="-2.51271">
        <ele>48.8</ele>
        <time>2021-05-10T09:44:01Z</time>
      </trkpt>
      <trkpt lat="48.46847" lon="-2.5126">
        <ele>48.9</ele>
        <time>2021-05-10T09:44:08Z</time>
      </trkpt>
      <trkpt lat="48.4685" lon="-2.51249">
        <ele>49</ele>
        <time>2021-05-10T09:44:15Z</time>
      </trkpt>
      <trkpt lat="48.46854" lon="-2.5124">
        <ele>49.1</ele>
        <time>2021-05-10T09:44:21Z</time>
      </trkpt>
      <trkpt lat="48.46857" lon="-2.51233">
        <ele>42.809753417969</ele>
        <time>2021-05-10T09:45:12Z</time>
      </trkpt>
      <trkpt lat="48.4686" lon="-2.5122">
        <ele>46.585815429688</ele>
        <time>2021-05-10T09:45:23Z</time>
      </trkpt>
      <trkpt lat="48.46867" lon="-2.51212">
        <ele>49.926452636719</ele>
        <time>2021-05-10T09:45:31Z</time>
      </trkpt>
      <trkpt lat="48.46873" lon="-2.51203">
        <ele>51.831665039062</ele>
        <time>2021-05-10T09:45:40Z</time>
      </trkpt>
      <trkpt lat="48.46878" lon="-2.51193">
        <ele>50.574768066406</ele>
        <time>2021-05-10T09:45:48Z</time>
      </trkpt>
      <trkpt lat="48.46885" lon="-2.51185">
        <ele>50.737182617188</ele>
        <time>2021-05-10T09:46:21Z</time>
      </trkpt>
      <trkpt lat="48.46891" lon="-2.51176">
        <ele>46.880493164062</ele>
        <time>2021-05-10T09:46:52Z</time>
      </trkpt>
      <trkpt lat="48.46891" lon="-2.51178">
        <ele>47.521484375</ele>
        <time>2021-05-10T09:47:04Z</time>
      </trkpt>
      <trkpt lat="48.46891" lon="-2.51178">
        <ele>47.521484375</ele>
        <time>2021-05-10T09:47:05Z</time>
      </trkpt>
      <trkpt lat="48.46891" lon="-2.51178">
        <ele>47.016418457031</ele>
        <time>2021-05-10T09:52:09Z</time>
      </trkpt>
      <trkpt lat="48.46899" lon="-2.51181">
        <ele>47.7626953125</ele>
        <time>2021-05-10T09:53:15Z</time>
      </trkpt>
      <trkpt lat="48.46903" lon="-2.5119">
        <ele>45.462341308594</ele>
        <time>2021-05-10T09:53:22Z</time>
      </trkpt>
      <trkpt lat="48.46906" lon="-2.51201">
        <ele>43.3251953125</ele>
        <time>2021-05-10T09:53:31Z</time>
      </trkpt>
      <trkpt lat="48.46909" lon="-2.51212">
        <ele>44.370056152344</ele>
        <time>2021-05-10T09:53:36Z</time>
      </trkpt>
      <trkpt lat="48.46917" lon="-2.51219">
        <ele>45.561767578125</ele>
        <time>2021-05-10T09:53:40Z</time>
      </trkpt>
      <trkpt lat="48.46923" lon="-2.51227">
        <ele>43.024291992188</ele>
        <time>2021-05-10T09:53:48Z</time>
      </trkpt>
      <trkpt lat="48.46929" lon="-2.51221">
        <ele>45.88232421875</ele>
        <time>2021-05-10T09:53:55Z</time>
      </trkpt>
      <trkpt lat="48.46935" lon="-2.51211">
        <ele>48.534057617188</ele>
        <time>2021-05-10T09:54:01Z</time>
      </trkpt>
      <trkpt lat="48.46938" lon="-2.512">
        <ele>48.487243652344</ele>
        <time>2021-05-10T09:54:07Z</time>
      </trkpt>
      <trkpt lat="48.46943" lon="-2.51189">
        <ele>50.592590332031</ele>
        <time>2021-05-10T09:54:14Z</time>
      </trkpt>
      <trkpt lat="48.46948" lon="-2.51178">
        <ele>52.387084960938</ele>
        <time>2021-05-10T09:54:21Z</time>
      </trkpt>
      <trkpt lat="48.46953" lon="-2.51169">
        <ele>52.840087890625</ele>
        <time>2021-05-10T09:54:27Z</time>
      </trkpt>
      <trkpt lat="48.46956" lon="-2.51158">
        <ele>52.313598632812</ele>
        <time>2021-05-10T09:54:32Z</time>
      </trkpt>
      <trkpt lat="48.46963" lon="-2.51151">
        <ele>49.070556640625</ele>
        <time>2021-05-10T09:54:42Z</time>
      </trkpt>
      <trkpt lat="48.46967" lon="-2.51142">
        <ele>47.715209960938</ele>
        <time>2021-05-10T09:54:49Z</time>
      </trkpt>
      <trkpt lat="48.46973" lon="-2.51133">
        <ele>48.293151855469</ele>
        <time>2021-05-10T09:54:57Z</time>
      </trkpt>
      <trkpt lat="48.46981" lon="-2.51129">
        <ele>49.73779296875</ele>
        <time>2021-05-10T09:55:26Z</time>
      </trkpt>
      <trkpt lat="48.46987" lon="-2.5112">
        <ele>49.381591796875</ele>
        <time>2021-05-10T09:55:33Z</time>
      </trkpt>
      <trkpt lat="48.46992" lon="-2.51109">
        <ele>47.915405273438</ele>
        <time>2021-05-10T09:55:40Z</time>
      </trkpt>
      <trkpt lat="48.46997" lon="-2.51098">
        <ele>47.557678222656</ele>
        <time>2021-05-10T09:55:47Z</time>
      </trkpt>
      <trkpt lat="48.47003" lon="-2.5109">
        <ele>50.359558105469</ele>
        <time>2021-05-10T09:55:52Z</time>
      </trkpt>
      <trkpt lat="48.4701" lon="-2.51084">
        <ele>49.237182617188</ele>
        <time>2021-05-10T09:55:58Z</time>
      </trkpt>
      <trkpt lat="48.47014" lon="-2.51073">
        <ele>48.390930175781</ele>
        <time>2021-05-10T09:56:04Z</time>
      </trkpt>
      <trkpt lat="48.47021" lon="-2.51063">
        <ele>48.041809082031</ele>
        <time>2021-05-10T09:56:11Z</time>
      </trkpt>
      <trkpt lat="48.47028" lon="-2.51057">
        <ele>48.223571777344</ele>
        <time>2021-05-10T09:56:17Z</time>
      </trkpt>
      <trkpt lat="48.47032" lon="-2.51046">
        <ele>48.033813476562</ele>
        <time>2021-05-10T09:56:23Z</time>
      </trkpt>
      <trkpt lat="48.47037" lon="-2.51037">
        <ele>47.056274414062</ele>
        <time>2021-05-10T09:56:31Z</time>
      </trkpt>
      <trkpt lat="48.47045" lon="-2.5103">
        <ele>47.653015136719</ele>
        <time>2021-05-10T09:56:38Z</time>
      </trkpt>
      <trkpt lat="48.47051" lon="-2.51021">
        <ele>44.49267578125</ele>
        <time>2021-05-10T09:56:44Z</time>
      </trkpt>
      <trkpt lat="48.47058" lon="-2.51012">
        <ele>45.315002441406</ele>
        <time>2021-05-10T09:56:51Z</time>
      </trkpt>
      <trkpt lat="48.47066" lon="-2.51013">
        <ele>46.270202636719</ele>
        <time>2021-05-10T09:57:03Z</time>
      </trkpt>
      <trkpt lat="48.47071" lon="-2.51024">
        <ele>45.028747558594</ele>
        <time>2021-05-10T09:57:09Z</time>
      </trkpt>
      <trkpt lat="48.47076" lon="-2.51013">
        <ele>49.043395996094</ele>
        <time>2021-05-10T09:57:48Z</time>
      </trkpt>
      <trkpt lat="48.47077" lon="-2.51002">
        <ele>47.004455566406</ele>
        <time>2021-05-10T09:58:36Z</time>
      </trkpt>
      <trkpt lat="48.47077" lon="-2.50988">
        <ele>49.364013671875</ele>
        <time>2021-05-10T09:58:47Z</time>
      </trkpt>
      <trkpt lat="48.47071" lon="-2.5098">
        <ele>49.256958007812</ele>
        <time>2021-05-10T09:59:28Z</time>
      </trkpt>
      <trkpt lat="48.47065" lon="-2.50971">
        <ele>46.802124023438</ele>
        <time>2021-05-10T09:59:36Z</time>
      </trkpt>
      <trkpt lat="48.47068" lon="-2.50958">
        <ele>46.913208007812</ele>
        <time>2021-05-10T09:59:42Z</time>
      </trkpt>
      <trkpt lat="48.47073" lon="-2.50948">
        <ele>47.301208496094</ele>
        <time>2021-05-10T09:59:50Z</time>
      </trkpt>
      <trkpt lat="48.47079" lon="-2.50941">
        <ele>48.081848144531</ele>
        <time>2021-05-10T09:59:59Z</time>
      </trkpt>
      <trkpt lat="48.47088" lon="-2.50934">
        <ele>50.054016113281</ele>
        <time>2021-05-10T10:00:04Z</time>
      </trkpt>
      <trkpt lat="48.47091" lon="-2.50923">
        <ele>49.9296875</ele>
        <time>2021-05-10T10:00:09Z</time>
      </trkpt>
      <trkpt lat="48.47097" lon="-2.50914">
        <ele>50.521789550781</ele>
        <time>2021-05-10T10:00:18Z</time>
      </trkpt>
      <trkpt lat="48.47103" lon="-2.50905">
        <ele>51.824523925781</ele>
        <time>2021-05-10T10:00:25Z</time>
      </trkpt>
      <trkpt lat="48.47104" lon="-2.50892">
        <ele>45.393981933594</ele>
        <time>2021-05-10T10:01:00Z</time>
      </trkpt>
      <trkpt lat="48.47105" lon="-2.50879">
        <ele>47.388854980469</ele>
        <time>2021-05-10T10:01:07Z</time>
      </trkpt>
      <trkpt lat="48.47106" lon="-2.50867">
        <ele>51.441223144531</ele>
        <time>2021-05-10T10:01:16Z</time>
      </trkpt>
      <trkpt lat="48.47109" lon="-2.50854">
        <ele>50.625</ele>
        <time>2021-05-10T10:01:23Z</time>
      </trkpt>
      <trkpt lat="48.47114" lon="-2.50845">
        <ele>49.294250488281</ele>
        <time>2021-05-10T10:01:31Z</time>
      </trkpt>
      <trkpt lat="48.47119" lon="-2.50834">
        <ele>50.898986816406</ele>
        <time>2021-05-10T10:01:38Z</time>
      </trkpt>
      <trkpt lat="48.47123" lon="-2.50823">
        <ele>46.864013671875</ele>
        <time>2021-05-10T10:01:49Z</time>
      </trkpt>
      <trkpt lat="48.47131" lon="-2.5082">
        <ele>45.319580078125</ele>
        <time>2021-05-10T10:01:56Z</time>
      </trkpt>
      <trkpt lat="48.47138" lon="-2.50814">
        <ele>47.013916015625</ele>
        <time>2021-05-10T10:02:03Z</time>
      </trkpt>
      <trkpt lat="48.47145" lon="-2.50808">
        <ele>45.2353515625</ele>
        <time>2021-05-10T10:02:12Z</time>
      </trkpt>
      <trkpt lat="48.47152" lon="-2.50809">
        <ele>45.787902832031</ele>
        <time>2021-05-10T10:02:19Z</time>
      </trkpt>
      <trkpt lat="48.47161" lon="-2.50811">
        <ele>46.565612792969</ele>
        <time>2021-05-10T10:02:37Z</time>
      </trkpt>
      <trkpt lat="48.47166" lon="-2.508">
        <ele>48.51953125</ele>
        <time>2021-05-10T10:03:01Z</time>
      </trkpt>
      <trkpt lat="48.47169" lon="-2.50787">
        <ele>47.84765625</ele>
        <time>2021-05-10T10:03:10Z</time>
      </trkpt>
      <trkpt lat="48.4717" lon="-2.50774">
        <ele>44.616943359375</ele>
        <time>2021-05-10T10:03:22Z</time>
      </trkpt>
      <trkpt lat="48.47172" lon="-2.50762">
        <ele>46.972351074219</ele>
        <time>2021-05-10T10:03:30Z</time>
      </trkpt>
      <trkpt lat="48.47172" lon="-2.50748">
        <ele>47.548522949219</ele>
        <time>2021-05-10T10:03:38Z</time>
      </trkpt>
      <trkpt lat="48.4717" lon="-2.50736">
        <ele>49.3</ele>
        <time>2021-05-10T10:03:45Z</time>
      </trkpt>
      <trkpt lat="48.47171" lon="-2.50724">
        <ele>46.177795410156</ele>
        <time>2021-05-10T10:03:54Z</time>
      </trkpt>
      <trkpt lat="48.47169" lon="-2.50712">
        <ele>45.341003417969</ele>
        <time>2021-05-10T10:04:00Z</time>
      </trkpt>
      <trkpt lat="48.47169" lon="-2.50701">
        <ele>48.278930664062</ele>
        <time>2021-05-10T10:04:07Z</time>
      </trkpt>
      <trkpt lat="48.47173" lon="-2.50689">
        <ele>49.173645019531</ele>
        <time>2021-05-10T10:04:13Z</time>
      </trkpt>
      <trkpt lat="48.47177" lon="-2.50677">
        <ele>50.349792480469</ele>
        <time>2021-05-10T10:04:23Z</time>
      </trkpt>
      <trkpt lat="48.47184" lon="-2.50669">
        <ele>45.690490722656</ele>
        <time>2021-05-10T10:04:38Z</time>
      </trkpt>
      <trkpt lat="48.4719" lon="-2.50661">
        <ele>40.661376953125</ele>
        <time>2021-05-10T10:04:48Z</time>
      </trkpt>
      <trkpt lat="48.47194" lon="-2.5065">
        <ele>42.520874023438</ele>
        <time>2021-05-10T10:04:54Z</time>
      </trkpt>
      <trkpt lat="48.47196" lon="-2.50637">
        <ele>46.8505859375</ele>
        <time>2021-05-10T10:05:06Z</time>
      </trkpt>
      <trkpt lat="48.47196" lon="-2.50624">
        <ele>45.983154296875</ele>
        <time>2021-05-10T10:05:45Z</time>
      </trkpt>
      <trkpt lat="48.47194" lon="-2.50612">
        <ele>45.389770507812</ele>
        <time>2021-05-10T10:05:52Z</time>
      </trkpt>
      <trkpt lat="48.47191" lon="-2.50601">
        <ele>43.81494140625</ele>
        <time>2021-05-10T10:05:57Z</time>
      </trkpt>
      <trkpt lat="48.4719" lon="-2.50589">
        <ele>46.968383789062</ele>
        <time>2021-05-10T10:06:10Z</time>
      </trkpt>
      <trkpt lat="48.47186" lon="-2.50578">
        <ele>44.263671875</ele>
        <time>2021-05-10T10:06:15Z</time>
      </trkpt>
      <trkpt lat="48.47181" lon="-2.50567">
        <ele>44.887817382812</ele>
        <time>2021-05-10T10:06:20Z</time>
      </trkpt>
      <trkpt lat="48.47177" lon="-2.50556">
        <ele>46.906005859375</ele>
        <time>2021-05-10T10:06:29Z</time>
      </trkpt>
      <trkpt lat="48.47171" lon="-2.50546">
        <ele>45.557250976562</ele>
        <time>2021-05-10T10:06:40Z</time>
      </trkpt>
      <trkpt lat="48.47165" lon="-2.50538">
        <ele>44.990234375</ele>
        <time>2021-05-10T10:06:47Z</time>
      </trkpt>
      <trkpt lat="48.47158" lon="-2.50531">
        <ele>39.706298828125</ele>
        <time>2021-05-10T10:06:55Z</time>
      </trkpt>
      <trkpt lat="48.47148" lon="-2.50524">
        <ele>48.5</ele>
        <time>2021-05-10T10:07:00Z</time>
      </trkpt>
      <trkpt lat="48.47138" lon="-2.50515">
        <ele>48.8</ele>
        <time>2021-05-10T10:07:08Z</time>
      </trkpt>
      <trkpt lat="48.47126" lon="-2.5051">
        <ele>49</ele>
        <time>2021-05-10T10:07:13Z</time>
      </trkpt>
      <trkpt lat="48.47116" lon="-2.50502">
        <ele>49.2</ele>
        <time>2021-05-10T10:07:23Z</time>
      </trkpt>
      <trkpt lat="48.47116" lon="-2.50489">
        <ele>49.1</ele>
        <time>2021-05-10T10:07:31Z</time>
      </trkpt>
      <trkpt lat="48.47114" lon="-2.50475">
        <ele>48.9</ele>
        <time>2021-05-10T10:07:38Z</time>
      </trkpt>
      <trkpt lat="48.47114" lon="-2.5046">
        <ele>48.7</ele>
        <time>2021-05-10T10:07:44Z</time>
      </trkpt>
      <trkpt lat="48.47112" lon="-2.50448">
        <ele>48.5</ele>
        <time>2021-05-10T10:07:51Z</time>
      </trkpt>
      <trkpt lat="48.4711" lon="-2.5044">
        <ele>48.4</ele>
        <time>2021-05-10T10:08:01Z</time>
      </trkpt>
      <trkpt lat="48.47106" lon="-2.50431">
        <ele>48.2</ele>
        <time>2021-05-10T10:08:08Z</time>
      </trkpt>
      <trkpt lat="48.47105" lon="-2.50419">
        <ele>46.712158203125</ele>
        <time>2021-05-10T10:08:14Z</time>
      </trkpt>
      <trkpt lat="48.47106" lon="-2.50412">
        <ele>48</ele>
        <time>2021-05-10T10:08:21Z</time>
      </trkpt>
      <trkpt lat="48.47115" lon="-2.50402">
        <ele>48.1</ele>
        <time>2021-05-10T10:08:28Z</time>
      </trkpt>
      <trkpt lat="48.4712" lon="-2.50399">
        <ele>48.1</ele>
      </trkpt>
      <trkpt lat="48.47124" lon="-2.50393">
        <ele>48.1</ele>
        <time>2021-05-10T10:08:38Z</time>
      </trkpt>
      <trkpt lat="48.4713" lon="-2.50391">
        <ele>48.2</ele>
        <time>2021-05-10T10:08:45Z</time>
      </trkpt>
      <trkpt lat="48.47136" lon="-2.50383">
        <ele>48.3</ele>
        <time>2021-05-10T10:08:52Z</time>
      </trkpt>
      <trkpt lat="48.47161" lon="-2.50359">
        <ele>48.6</ele>
        <time>2021-05-10T10:08:58Z</time>
      </trkpt>
    </trkseg>
  </trk>
</gpx>